<?xml version="1.0" encoding="UTF-8" standalone="no" ?>
<gpx xmlns="http://www.topografix.com/GPX/1/1" xmlns:xsi="http://www.w3.org/2001/XMLSchema-instance" xsi:schemaLocation="http://www.topografix.com/GPX/1/1 http://www.topografix.com/GPX/1/1/gpx.xsd" version="1.1" creator="VisuGPX - https://www.visugpx.com">
  <metadata>
    <name>samuscup201602</name>
    <desc><![CDATA[24 mai
Fisrt 34.7
]]></desc>
  </metadata>
  <trk>
    <name><![CDATA[Tracé actuel: 24 MAI 2016 15:42]]></name>
    <trkseg>
      <trkpt lat="43.13272" lon="5.76092">
        <ele>3.98</ele>
        <time>2016-05-24T13:42:45Z</time>
      </trkpt>
      <trkpt lat="43.13269" lon="5.76103">
        <ele>3.5</ele>
        <time>2016-05-24T13:42:49Z</time>
      </trkpt>
      <trkpt lat="43.13261" lon="5.7613">
        <ele>3.98</ele>
        <time>2016-05-24T13:42:58Z</time>
      </trkpt>
      <trkpt lat="43.13253" lon="5.76171">
        <ele>7.35</ele>
        <time>2016-05-24T13:43:11Z</time>
      </trkpt>
      <trkpt lat="43.13227" lon="5.76202">
        <ele>7.83</ele>
        <time>2016-05-24T13:43:26Z</time>
      </trkpt>
      <trkpt lat="43.13206" lon="5.76206">
        <ele>8.79</ele>
        <time>2016-05-24T13:43:38Z</time>
      </trkpt>
      <trkpt lat="43.13204" lon="5.762">
        <ele>9.75</ele>
        <time>2016-05-24T13:43:41Z</time>
      </trkpt>
      <trkpt lat="43.13202" lon="5.7618">
        <ele>10.23</ele>
        <time>2016-05-24T13:43:53Z</time>
      </trkpt>
      <trkpt lat="43.13207" lon="5.76167">
        <ele>3.02</ele>
        <time>2016-05-24T13:44:07Z</time>
      </trkpt>
      <trkpt lat="43.13205" lon="5.76159">
        <ele>3.5</ele>
        <time>2016-05-24T13:44:13Z</time>
      </trkpt>
      <trkpt lat="43.13205" lon="5.76156">
        <ele>3.5</ele>
        <time>2016-05-24T13:44:15Z</time>
      </trkpt>
      <trkpt lat="43.13205" lon="5.7615">
        <ele>3.02</ele>
        <time>2016-05-24T13:44:19Z</time>
      </trkpt>
      <trkpt lat="43.13205" lon="5.76137">
        <ele>2.06</ele>
        <time>2016-05-24T13:44:27Z</time>
      </trkpt>
      <trkpt lat="43.13207" lon="5.76109">
        <ele>2.54</ele>
        <time>2016-05-24T13:44:45Z</time>
      </trkpt>
      <trkpt lat="43.13207" lon="5.76107">
        <ele>2.54</ele>
        <time>2016-05-24T13:44:46Z</time>
      </trkpt>
      <trkpt lat="43.13207" lon="5.76101">
        <ele>2.54</ele>
        <time>2016-05-24T13:44:50Z</time>
      </trkpt>
      <trkpt lat="43.13207" lon="5.76089">
        <ele>1.58</ele>
        <time>2016-05-24T13:44:57Z</time>
      </trkpt>
      <trkpt lat="43.13205" lon="5.76067">
        <ele>1.1</ele>
        <time>2016-05-24T13:45:11Z</time>
      </trkpt>
      <trkpt lat="43.13201" lon="5.76044">
        <ele>-2.75</ele>
        <time>2016-05-24T13:45:24Z</time>
      </trkpt>
      <trkpt lat="43.13201" lon="5.76037">
        <ele>-3.23</ele>
        <time>2016-05-24T13:45:29Z</time>
      </trkpt>
      <trkpt lat="43.132" lon="5.76023">
        <ele>-4.67</ele>
        <time>2016-05-24T13:45:39Z</time>
      </trkpt>
      <trkpt lat="43.13198" lon="5.76005">
        <ele>-3.23</ele>
        <time>2016-05-24T13:45:52Z</time>
      </trkpt>
      <trkpt lat="43.13197" lon="5.76002">
        <ele>-3.23</ele>
        <time>2016-05-24T13:45:54Z</time>
      </trkpt>
      <trkpt lat="43.13192" lon="5.75979">
        <ele>-2.27</ele>
        <time>2016-05-24T13:46:10Z</time>
      </trkpt>
      <trkpt lat="43.13185" lon="5.75951">
        <ele>-1.3</ele>
        <time>2016-05-24T13:46:28Z</time>
      </trkpt>
      <trkpt lat="43.13182" lon="5.75935">
        <ele>-0.82</ele>
        <time>2016-05-24T13:46:38Z</time>
      </trkpt>
      <trkpt lat="43.13177" lon="5.7591">
        <ele>-0.82</ele>
        <time>2016-05-24T13:46:54Z</time>
      </trkpt>
      <trkpt lat="43.13174" lon="5.75888">
        <ele>-1.79</ele>
        <time>2016-05-24T13:47:06Z</time>
      </trkpt>
      <trkpt lat="43.13163" lon="5.75882">
        <ele>-1.3</ele>
        <time>2016-05-24T13:47:13Z</time>
      </trkpt>
      <trkpt lat="43.13123" lon="5.75896">
        <ele>-0.82</ele>
        <time>2016-05-24T13:47:28Z</time>
      </trkpt>
      <trkpt lat="43.13083" lon="5.75927">
        <ele>-0.34</ele>
        <time>2016-05-24T13:47:43Z</time>
      </trkpt>
      <trkpt lat="43.13048" lon="5.75968">
        <ele>0.14</ele>
        <time>2016-05-24T13:47:57Z</time>
      </trkpt>
      <trkpt lat="43.1302" lon="5.76009">
        <ele>-0.82</ele>
        <time>2016-05-24T13:48:10Z</time>
      </trkpt>
      <trkpt lat="43.13016" lon="5.76014">
        <ele>-1.3</ele>
        <time>2016-05-24T13:48:12Z</time>
      </trkpt>
      <trkpt lat="43.13002" lon="5.76">
        <ele>-1.3</ele>
        <time>2016-05-24T13:48:23Z</time>
      </trkpt>
      <trkpt lat="43.12995" lon="5.75988">
        <ele>-2.27</ele>
        <time>2016-05-24T13:48:37Z</time>
      </trkpt>
      <trkpt lat="43.12978" lon="5.75978">
        <ele>-1.3</ele>
        <time>2016-05-24T13:48:48Z</time>
      </trkpt>
      <trkpt lat="43.1295" lon="5.75949">
        <ele>0.14</ele>
        <time>2016-05-24T13:49:02Z</time>
      </trkpt>
      <trkpt lat="43.12927" lon="5.7593">
        <ele>1.1</ele>
        <time>2016-05-24T13:49:11Z</time>
      </trkpt>
      <trkpt lat="43.12904" lon="5.75907">
        <ele>0.62</ele>
        <time>2016-05-24T13:49:21Z</time>
      </trkpt>
      <trkpt lat="43.12882" lon="5.75883">
        <ele>-0.34</ele>
        <time>2016-05-24T13:49:34Z</time>
      </trkpt>
      <trkpt lat="43.12878" lon="5.75878">
        <ele>-0.34</ele>
        <time>2016-05-24T13:49:36Z</time>
      </trkpt>
      <trkpt lat="43.12866" lon="5.7587">
        <ele>-0.82</ele>
        <time>2016-05-24T13:49:41Z</time>
      </trkpt>
      <trkpt lat="43.12861" lon="5.7586">
        <ele>-1.3</ele>
        <time>2016-05-24T13:49:45Z</time>
      </trkpt>
      <trkpt lat="43.12835" lon="5.75841">
        <ele>-0.82</ele>
        <time>2016-05-24T13:49:57Z</time>
      </trkpt>
      <trkpt lat="43.12833" lon="5.75838">
        <ele>-0.82</ele>
        <time>2016-05-24T13:49:58Z</time>
      </trkpt>
      <trkpt lat="43.12828" lon="5.75825">
        <ele>-1.3</ele>
        <time>2016-05-24T13:50:03Z</time>
      </trkpt>
      <trkpt lat="43.12801" lon="5.75808">
        <ele>-2.27</ele>
        <time>2016-05-24T13:50:14Z</time>
      </trkpt>
      <trkpt lat="43.1277" lon="5.75782">
        <ele>-2.75</ele>
        <time>2016-05-24T13:50:25Z</time>
      </trkpt>
      <trkpt lat="43.12736" lon="5.75763">
        <ele>-1.3</ele>
        <time>2016-05-24T13:50:36Z</time>
      </trkpt>
      <trkpt lat="43.127" lon="5.75736">
        <ele>-0.82</ele>
        <time>2016-05-24T13:50:48Z</time>
      </trkpt>
      <trkpt lat="43.12668" lon="5.75709">
        <ele>-0.82</ele>
        <time>2016-05-24T13:51:00Z</time>
      </trkpt>
      <trkpt lat="43.12641" lon="5.75689">
        <ele>-1.3</ele>
        <time>2016-05-24T13:51:10Z</time>
      </trkpt>
      <trkpt lat="43.12619" lon="5.75665">
        <ele>-3.23</ele>
        <time>2016-05-24T13:51:20Z</time>
      </trkpt>
      <trkpt lat="43.12593" lon="5.75646">
        <ele>-2.27</ele>
        <time>2016-05-24T13:51:30Z</time>
      </trkpt>
      <trkpt lat="43.1256" lon="5.75619">
        <ele>-1.79</ele>
        <time>2016-05-24T13:51:43Z</time>
      </trkpt>
      <trkpt lat="43.12532" lon="5.75594">
        <ele>0.14</ele>
        <time>2016-05-24T13:51:54Z</time>
      </trkpt>
      <trkpt lat="43.12505" lon="5.75575">
        <ele>1.58</ele>
        <time>2016-05-24T13:52:04Z</time>
      </trkpt>
      <trkpt lat="43.12495" lon="5.75566">
        <ele>2.06</ele>
        <time>2016-05-24T13:52:08Z</time>
      </trkpt>
      <trkpt lat="43.12464" lon="5.75543">
        <ele>1.58</ele>
        <time>2016-05-24T13:52:20Z</time>
      </trkpt>
      <trkpt lat="43.12434" lon="5.75519">
        <ele>2.06</ele>
        <time>2016-05-24T13:52:31Z</time>
      </trkpt>
      <trkpt lat="43.12431" lon="5.75518">
        <ele>2.06</ele>
        <time>2016-05-24T13:52:32Z</time>
      </trkpt>
      <trkpt lat="43.12417" lon="5.75509">
        <ele>2.06</ele>
        <time>2016-05-24T13:52:37Z</time>
      </trkpt>
      <trkpt lat="43.12386" lon="5.75479">
        <ele>2.54</ele>
        <time>2016-05-24T13:52:50Z</time>
      </trkpt>
      <trkpt lat="43.1236" lon="5.75459">
        <ele>2.06</ele>
        <time>2016-05-24T13:53:00Z</time>
      </trkpt>
      <trkpt lat="43.12344" lon="5.75441">
        <ele>1.58</ele>
        <time>2016-05-24T13:53:07Z</time>
      </trkpt>
      <trkpt lat="43.12314" lon="5.75416">
        <ele>2.54</ele>
        <time>2016-05-24T13:53:19Z</time>
      </trkpt>
      <trkpt lat="43.12283" lon="5.7539">
        <ele>2.06</ele>
        <time>2016-05-24T13:53:31Z</time>
      </trkpt>
      <trkpt lat="43.12259" lon="5.75369">
        <ele>3.02</ele>
        <time>2016-05-24T13:53:41Z</time>
      </trkpt>
      <trkpt lat="43.12228" lon="5.75343">
        <ele>2.54</ele>
        <time>2016-05-24T13:53:53Z</time>
      </trkpt>
      <trkpt lat="43.12205" lon="5.7532">
        <ele>2.06</ele>
        <time>2016-05-24T13:54:03Z</time>
      </trkpt>
      <trkpt lat="43.12174" lon="5.75298">
        <ele>1.58</ele>
        <time>2016-05-24T13:54:14Z</time>
      </trkpt>
      <trkpt lat="43.12148" lon="5.75277">
        <ele>0.62</ele>
        <time>2016-05-24T13:54:24Z</time>
      </trkpt>
      <trkpt lat="43.12118" lon="5.75251">
        <ele>-0.34</ele>
        <time>2016-05-24T13:54:36Z</time>
      </trkpt>
      <trkpt lat="43.1209" lon="5.75232">
        <ele>-0.82</ele>
        <time>2016-05-24T13:54:46Z</time>
      </trkpt>
      <trkpt lat="43.12064" lon="5.7521">
        <ele>-0.34</ele>
        <time>2016-05-24T13:54:56Z</time>
      </trkpt>
      <trkpt lat="43.12039" lon="5.75187">
        <ele>-0.34</ele>
        <time>2016-05-24T13:55:06Z</time>
      </trkpt>
      <trkpt lat="43.12037" lon="5.75184">
        <ele>-0.34</ele>
        <time>2016-05-24T13:55:07Z</time>
      </trkpt>
      <trkpt lat="43.12006" lon="5.75156">
        <ele>-0.34</ele>
        <time>2016-05-24T13:55:19Z</time>
      </trkpt>
      <trkpt lat="43.12" lon="5.75148">
        <ele>0.14</ele>
        <time>2016-05-24T13:55:22Z</time>
      </trkpt>
      <trkpt lat="43.11981" lon="5.75134">
        <ele>1.58</ele>
        <time>2016-05-24T13:55:30Z</time>
      </trkpt>
      <trkpt lat="43.11955" lon="5.75113">
        <ele>1.1</ele>
        <time>2016-05-24T13:55:41Z</time>
      </trkpt>
      <trkpt lat="43.1193" lon="5.75094">
        <ele>2.54</ele>
        <time>2016-05-24T13:55:51Z</time>
      </trkpt>
      <trkpt lat="43.11915" lon="5.75084">
        <ele>3.5</ele>
        <time>2016-05-24T13:55:57Z</time>
      </trkpt>
      <trkpt lat="43.11906" lon="5.75077">
        <ele>4.94</ele>
        <time>2016-05-24T13:56:01Z</time>
      </trkpt>
      <trkpt lat="43.11872" lon="5.75047">
        <ele>7.35</ele>
        <time>2016-05-24T13:56:15Z</time>
      </trkpt>
      <trkpt lat="43.11844" lon="5.75024">
        <ele>7.35</ele>
        <time>2016-05-24T13:56:26Z</time>
      </trkpt>
      <trkpt lat="43.11808" lon="5.75002">
        <ele>7.35</ele>
        <time>2016-05-24T13:56:38Z</time>
      </trkpt>
      <trkpt lat="43.1177" lon="5.74985">
        <ele>3.98</ele>
        <time>2016-05-24T13:56:50Z</time>
      </trkpt>
      <trkpt lat="43.11732" lon="5.7497">
        <ele>3.02</ele>
        <time>2016-05-24T13:57:02Z</time>
      </trkpt>
      <trkpt lat="43.11701" lon="5.74957">
        <ele>3.98</ele>
        <time>2016-05-24T13:57:12Z</time>
      </trkpt>
      <trkpt lat="43.11662" lon="5.74943">
        <ele>5.91</ele>
        <time>2016-05-24T13:57:24Z</time>
      </trkpt>
      <trkpt lat="43.11623" lon="5.74933">
        <ele>7.35</ele>
        <time>2016-05-24T13:57:35Z</time>
      </trkpt>
      <trkpt lat="43.11589" lon="5.74924">
        <ele>6.87</ele>
        <time>2016-05-24T13:57:45Z</time>
      </trkpt>
      <trkpt lat="43.11556" lon="5.74916">
        <ele>6.87</ele>
        <time>2016-05-24T13:57:55Z</time>
      </trkpt>
      <trkpt lat="43.11515" lon="5.74906">
        <ele>6.39</ele>
        <time>2016-05-24T13:58:07Z</time>
      </trkpt>
      <trkpt lat="43.11502" lon="5.74904">
        <ele>4.46</ele>
        <time>2016-05-24T13:58:11Z</time>
      </trkpt>
      <trkpt lat="43.11467" lon="5.749">
        <ele>3.02</ele>
        <time>2016-05-24T13:58:21Z</time>
      </trkpt>
      <trkpt lat="43.1143" lon="5.74892">
        <ele>2.06</ele>
        <time>2016-05-24T13:58:32Z</time>
      </trkpt>
      <trkpt lat="43.11398" lon="5.74885">
        <ele>2.06</ele>
        <time>2016-05-24T13:58:41Z</time>
      </trkpt>
      <trkpt lat="43.11371" lon="5.74879">
        <ele>1.58</ele>
        <time>2016-05-24T13:58:49Z</time>
      </trkpt>
      <trkpt lat="43.11331" lon="5.74874">
        <ele>0.62</ele>
        <time>2016-05-24T13:59:00Z</time>
      </trkpt>
      <trkpt lat="43.11309" lon="5.74867">
        <ele>0.62</ele>
        <time>2016-05-24T13:59:07Z</time>
      </trkpt>
      <trkpt lat="43.11266" lon="5.74862">
        <ele>2.06</ele>
        <time>2016-05-24T13:59:19Z</time>
      </trkpt>
      <trkpt lat="43.11248" lon="5.74858">
        <ele>2.54</ele>
        <time>2016-05-24T13:59:24Z</time>
      </trkpt>
      <trkpt lat="43.11227" lon="5.74855">
        <ele>2.54</ele>
        <time>2016-05-24T13:59:30Z</time>
      </trkpt>
      <trkpt lat="43.11191" lon="5.74852">
        <ele>2.54</ele>
        <time>2016-05-24T13:59:40Z</time>
      </trkpt>
      <trkpt lat="43.11151" lon="5.7485">
        <ele>3.98</ele>
        <time>2016-05-24T13:59:51Z</time>
      </trkpt>
      <trkpt lat="43.11147" lon="5.74851">
        <ele>3.98</ele>
        <time>2016-05-24T13:59:52Z</time>
      </trkpt>
      <trkpt lat="43.1112" lon="5.74852">
        <ele>2.54</ele>
        <time>2016-05-24T13:59:59Z</time>
      </trkpt>
      <trkpt lat="43.11068" lon="5.74865">
        <ele>1.58</ele>
        <time>2016-05-24T14:00:13Z</time>
      </trkpt>
      <trkpt lat="43.11053" lon="5.74869">
        <ele>1.58</ele>
        <time>2016-05-24T14:00:17Z</time>
      </trkpt>
      <trkpt lat="43.11038" lon="5.7487">
        <ele>0.14</ele>
        <time>2016-05-24T14:00:21Z</time>
      </trkpt>
      <trkpt lat="43.10996" lon="5.74873">
        <ele>0.14</ele>
        <time>2016-05-24T14:00:33Z</time>
      </trkpt>
      <trkpt lat="43.10976" lon="5.74882">
        <ele>-0.34</ele>
        <time>2016-05-24T14:00:39Z</time>
      </trkpt>
      <trkpt lat="43.10924" lon="5.74909">
        <ele>0.14</ele>
        <time>2016-05-24T14:00:53Z</time>
      </trkpt>
      <trkpt lat="43.10917" lon="5.74912">
        <ele>0.62</ele>
        <time>2016-05-24T14:00:55Z</time>
      </trkpt>
      <trkpt lat="43.10882" lon="5.74935">
        <ele>0.14</ele>
        <time>2016-05-24T14:01:05Z</time>
      </trkpt>
      <trkpt lat="43.10879" lon="5.74937">
        <ele>0.62</ele>
        <time>2016-05-24T14:01:06Z</time>
      </trkpt>
      <trkpt lat="43.10851" lon="5.74951">
        <ele>1.58</ele>
        <time>2016-05-24T14:01:14Z</time>
      </trkpt>
      <trkpt lat="43.10816" lon="5.74983">
        <ele>1.58</ele>
        <time>2016-05-24T14:01:25Z</time>
      </trkpt>
      <trkpt lat="43.10784" lon="5.75004">
        <ele>-0.34</ele>
        <time>2016-05-24T14:01:34Z</time>
      </trkpt>
      <trkpt lat="43.10766" lon="5.75015">
        <ele>-0.82</ele>
        <time>2016-05-24T14:01:39Z</time>
      </trkpt>
      <trkpt lat="43.10734" lon="5.75031">
        <ele>-1.3</ele>
        <time>2016-05-24T14:01:48Z</time>
      </trkpt>
      <trkpt lat="43.10719" lon="5.75042">
        <ele>-1.3</ele>
        <time>2016-05-24T14:01:52Z</time>
      </trkpt>
      <trkpt lat="43.10695" lon="5.75053">
        <ele>-0.82</ele>
        <time>2016-05-24T14:01:59Z</time>
      </trkpt>
      <trkpt lat="43.10667" lon="5.75068">
        <ele>1.1</ele>
        <time>2016-05-24T14:02:07Z</time>
      </trkpt>
      <trkpt lat="43.10664" lon="5.75071">
        <ele>1.58</ele>
        <time>2016-05-24T14:02:08Z</time>
      </trkpt>
      <trkpt lat="43.10643" lon="5.75081">
        <ele>2.54</ele>
        <time>2016-05-24T14:02:14Z</time>
      </trkpt>
      <trkpt lat="43.10611" lon="5.75107">
        <ele>3.5</ele>
        <time>2016-05-24T14:02:24Z</time>
      </trkpt>
      <trkpt lat="43.10593" lon="5.75118">
        <ele>3.98</ele>
        <time>2016-05-24T14:02:29Z</time>
      </trkpt>
      <trkpt lat="43.10584" lon="5.75127">
        <ele>4.46</ele>
        <time>2016-05-24T14:02:32Z</time>
      </trkpt>
      <trkpt lat="43.10544" lon="5.75157">
        <ele>3.5</ele>
        <time>2016-05-24T14:02:44Z</time>
      </trkpt>
      <trkpt lat="43.10529" lon="5.75167">
        <ele>3.02</ele>
        <time>2016-05-24T14:02:48Z</time>
      </trkpt>
      <trkpt lat="43.10497" lon="5.75189">
        <ele>1.58</ele>
        <time>2016-05-24T14:02:58Z</time>
      </trkpt>
      <trkpt lat="43.10494" lon="5.75191">
        <ele>1.58</ele>
        <time>2016-05-24T14:02:59Z</time>
      </trkpt>
      <trkpt lat="43.10478" lon="5.75197">
        <ele>2.06</ele>
        <time>2016-05-24T14:03:03Z</time>
      </trkpt>
      <trkpt lat="43.10461" lon="5.75209">
        <ele>2.06</ele>
        <time>2016-05-24T14:03:08Z</time>
      </trkpt>
      <trkpt lat="43.10448" lon="5.75216">
        <ele>2.06</ele>
        <time>2016-05-24T14:03:11Z</time>
      </trkpt>
      <trkpt lat="43.10441" lon="5.75222">
        <ele>2.06</ele>
        <time>2016-05-24T14:03:13Z</time>
      </trkpt>
      <trkpt lat="43.10408" lon="5.75242">
        <ele>2.06</ele>
        <time>2016-05-24T14:03:23Z</time>
      </trkpt>
      <trkpt lat="43.10404" lon="5.75244">
        <ele>2.54</ele>
        <time>2016-05-24T14:03:24Z</time>
      </trkpt>
      <trkpt lat="43.10365" lon="5.75271">
        <ele>2.54</ele>
        <time>2016-05-24T14:03:36Z</time>
      </trkpt>
      <trkpt lat="43.10331" lon="5.75299">
        <ele>1.1</ele>
        <time>2016-05-24T14:03:47Z</time>
      </trkpt>
      <trkpt lat="43.103" lon="5.75318">
        <ele>0.14</ele>
        <time>2016-05-24T14:03:56Z</time>
      </trkpt>
      <trkpt lat="43.10266" lon="5.75341">
        <ele>-0.34</ele>
        <time>2016-05-24T14:04:06Z</time>
      </trkpt>
      <trkpt lat="43.10251" lon="5.75349">
        <ele>-1.3</ele>
        <time>2016-05-24T14:04:10Z</time>
      </trkpt>
      <trkpt lat="43.10228" lon="5.75365">
        <ele>-0.82</ele>
        <time>2016-05-24T14:04:17Z</time>
      </trkpt>
      <trkpt lat="43.10213" lon="5.75368">
        <ele>0.14</ele>
        <time>2016-05-24T14:04:21Z</time>
      </trkpt>
      <trkpt lat="43.10177" lon="5.75391">
        <ele>1.58</ele>
        <time>2016-05-24T14:04:31Z</time>
      </trkpt>
      <trkpt lat="43.10166" lon="5.75398">
        <ele>1.58</ele>
        <time>2016-05-24T14:04:34Z</time>
      </trkpt>
      <trkpt lat="43.10143" lon="5.75416">
        <ele>1.1</ele>
        <time>2016-05-24T14:04:41Z</time>
      </trkpt>
      <trkpt lat="43.10116" lon="5.75426">
        <ele>0.62</ele>
        <time>2016-05-24T14:04:49Z</time>
      </trkpt>
      <trkpt lat="43.10109" lon="5.75421">
        <ele>0.14</ele>
        <time>2016-05-24T14:04:52Z</time>
      </trkpt>
      <trkpt lat="43.10075" lon="5.7543">
        <ele>-0.82</ele>
        <time>2016-05-24T14:05:03Z</time>
      </trkpt>
      <trkpt lat="43.10058" lon="5.75435">
        <ele>-1.79</ele>
        <time>2016-05-24T14:05:08Z</time>
      </trkpt>
      <trkpt lat="43.10024" lon="5.75453">
        <ele>-1.3</ele>
        <time>2016-05-24T14:05:18Z</time>
      </trkpt>
      <trkpt lat="43.09977" lon="5.75473">
        <ele>-0.34</ele>
        <time>2016-05-24T14:05:31Z</time>
      </trkpt>
      <trkpt lat="43.0997" lon="5.75475">
        <ele>-0.34</ele>
        <time>2016-05-24T14:05:33Z</time>
      </trkpt>
      <trkpt lat="43.09935" lon="5.755">
        <ele>2.54</ele>
        <time>2016-05-24T14:05:43Z</time>
      </trkpt>
      <trkpt lat="43.09932" lon="5.75502">
        <ele>3.02</ele>
        <time>2016-05-24T14:05:44Z</time>
      </trkpt>
      <trkpt lat="43.09901" lon="5.75524">
        <ele>4.46</ele>
        <time>2016-05-24T14:05:53Z</time>
      </trkpt>
      <trkpt lat="43.09878" lon="5.75552">
        <ele>5.42</ele>
        <time>2016-05-24T14:06:01Z</time>
      </trkpt>
      <trkpt lat="43.09859" lon="5.75572">
        <ele>5.42</ele>
        <time>2016-05-24T14:06:07Z</time>
      </trkpt>
      <trkpt lat="43.09851" lon="5.75585">
        <ele>5.91</ele>
        <time>2016-05-24T14:06:10Z</time>
      </trkpt>
      <trkpt lat="43.09839" lon="5.75603">
        <ele>5.42</ele>
        <time>2016-05-24T14:06:15Z</time>
      </trkpt>
      <trkpt lat="43.09819" lon="5.75638">
        <ele>4.94</ele>
        <time>2016-05-24T14:06:24Z</time>
      </trkpt>
      <trkpt lat="43.09794" lon="5.75669">
        <ele>2.54</ele>
        <time>2016-05-24T14:06:33Z</time>
      </trkpt>
      <trkpt lat="43.09757" lon="5.75705">
        <ele>1.58</ele>
        <time>2016-05-24T14:06:45Z</time>
      </trkpt>
      <trkpt lat="43.09736" lon="5.75726">
        <ele>1.1</ele>
        <time>2016-05-24T14:06:51Z</time>
      </trkpt>
      <trkpt lat="43.09711" lon="5.75755">
        <ele>-0.34</ele>
        <time>2016-05-24T14:06:59Z</time>
      </trkpt>
      <trkpt lat="43.09682" lon="5.75791">
        <ele>-1.79</ele>
        <time>2016-05-24T14:07:09Z</time>
      </trkpt>
      <trkpt lat="43.09662" lon="5.75799">
        <ele>-1.3</ele>
        <time>2016-05-24T14:07:15Z</time>
      </trkpt>
      <trkpt lat="43.09631" lon="5.7584">
        <ele>0.14</ele>
        <time>2016-05-24T14:07:26Z</time>
      </trkpt>
      <trkpt lat="43.09624" lon="5.7585">
        <ele>0.14</ele>
        <time>2016-05-24T14:07:29Z</time>
      </trkpt>
      <trkpt lat="43.09611" lon="5.75866">
        <ele>0.14</ele>
        <time>2016-05-24T14:07:33Z</time>
      </trkpt>
      <trkpt lat="43.09589" lon="5.759">
        <ele>-0.34</ele>
        <time>2016-05-24T14:07:41Z</time>
      </trkpt>
      <trkpt lat="43.09569" lon="5.75928">
        <ele>0.14</ele>
        <time>2016-05-24T14:07:48Z</time>
      </trkpt>
      <trkpt lat="43.09556" lon="5.75951">
        <ele>1.1</ele>
        <time>2016-05-24T14:07:53Z</time>
      </trkpt>
      <trkpt lat="43.09541" lon="5.75982">
        <ele>1.1</ele>
        <time>2016-05-24T14:08:00Z</time>
      </trkpt>
      <trkpt lat="43.09516" lon="5.76019">
        <ele>0.62</ele>
        <time>2016-05-24T14:08:10Z</time>
      </trkpt>
      <trkpt lat="43.09512" lon="5.7602">
        <ele>1.1</ele>
        <time>2016-05-24T14:08:11Z</time>
      </trkpt>
      <trkpt lat="43.09505" lon="5.76025">
        <ele>1.1</ele>
        <time>2016-05-24T14:08:13Z</time>
      </trkpt>
      <trkpt lat="43.09488" lon="5.76025">
        <ele>0.62</ele>
        <time>2016-05-24T14:08:18Z</time>
      </trkpt>
      <trkpt lat="43.09452" lon="5.76026">
        <ele>0.14</ele>
        <time>2016-05-24T14:08:28Z</time>
      </trkpt>
      <trkpt lat="43.09439" lon="5.76022">
        <ele>-0.34</ele>
        <time>2016-05-24T14:08:32Z</time>
      </trkpt>
      <trkpt lat="43.09413" lon="5.76016">
        <ele>0.14</ele>
        <time>2016-05-24T14:08:40Z</time>
      </trkpt>
      <trkpt lat="43.09399" lon="5.76006">
        <ele>-0.34</ele>
        <time>2016-05-24T14:08:45Z</time>
      </trkpt>
      <trkpt lat="43.09368" lon="5.75989">
        <ele>0.14</ele>
        <time>2016-05-24T14:08:55Z</time>
      </trkpt>
      <trkpt lat="43.09345" lon="5.75975">
        <ele>0.14</ele>
        <time>2016-05-24T14:09:03Z</time>
      </trkpt>
      <trkpt lat="43.09332" lon="5.75969">
        <ele>0.14</ele>
        <time>2016-05-24T14:09:07Z</time>
      </trkpt>
      <trkpt lat="43.09299" lon="5.75953">
        <ele>1.1</ele>
        <time>2016-05-24T14:09:18Z</time>
      </trkpt>
      <trkpt lat="43.09293" lon="5.75949">
        <ele>1.1</ele>
        <time>2016-05-24T14:09:20Z</time>
      </trkpt>
      <trkpt lat="43.09274" lon="5.75939">
        <ele>1.1</ele>
        <time>2016-05-24T14:09:26Z</time>
      </trkpt>
      <trkpt lat="43.09237" lon="5.75926">
        <ele>-2.27</ele>
        <time>2016-05-24T14:09:37Z</time>
      </trkpt>
      <trkpt lat="43.09209" lon="5.75912">
        <ele>-1.3</ele>
        <time>2016-05-24T14:09:47Z</time>
      </trkpt>
      <trkpt lat="43.0921" lon="5.75899">
        <ele>-2.27</ele>
        <time>2016-05-24T14:09:53Z</time>
      </trkpt>
      <trkpt lat="43.09215" lon="5.75894">
        <ele>-1.79</ele>
        <time>2016-05-24T14:09:56Z</time>
      </trkpt>
      <trkpt lat="43.09231" lon="5.75885">
        <ele>-0.82</ele>
        <time>2016-05-24T14:10:02Z</time>
      </trkpt>
      <trkpt lat="43.09253" lon="5.7588">
        <ele>-0.82</ele>
        <time>2016-05-24T14:10:08Z</time>
      </trkpt>
      <trkpt lat="43.09292" lon="5.75879">
        <ele>-1.79</ele>
        <time>2016-05-24T14:10:19Z</time>
      </trkpt>
      <trkpt lat="43.09315" lon="5.75871">
        <ele>-1.79</ele>
        <time>2016-05-24T14:10:26Z</time>
      </trkpt>
      <trkpt lat="43.09336" lon="5.75857">
        <ele>-3.71</ele>
        <time>2016-05-24T14:10:34Z</time>
      </trkpt>
      <trkpt lat="43.09347" lon="5.75853">
        <ele>-3.23</ele>
        <time>2016-05-24T14:10:38Z</time>
      </trkpt>
      <trkpt lat="43.09385" lon="5.75844">
        <ele>-2.75</ele>
        <time>2016-05-24T14:10:50Z</time>
      </trkpt>
      <trkpt lat="43.09394" lon="5.75835">
        <ele>-2.75</ele>
        <time>2016-05-24T14:10:54Z</time>
      </trkpt>
      <trkpt lat="43.09416" lon="5.75831">
        <ele>-0.82</ele>
        <time>2016-05-24T14:11:01Z</time>
      </trkpt>
      <trkpt lat="43.09454" lon="5.75827">
        <ele>-0.82</ele>
        <time>2016-05-24T14:11:12Z</time>
      </trkpt>
      <trkpt lat="43.09492" lon="5.75821">
        <ele>-0.34</ele>
        <time>2016-05-24T14:11:23Z</time>
      </trkpt>
      <trkpt lat="43.09505" lon="5.75821">
        <ele>0.14</ele>
        <time>2016-05-24T14:11:27Z</time>
      </trkpt>
      <trkpt lat="43.09534" lon="5.75819">
        <ele>0.62</ele>
        <time>2016-05-24T14:11:35Z</time>
      </trkpt>
      <trkpt lat="43.09561" lon="5.75811">
        <ele>0.62</ele>
        <time>2016-05-24T14:11:43Z</time>
      </trkpt>
      <trkpt lat="43.09592" lon="5.75808">
        <ele>1.1</ele>
        <time>2016-05-24T14:11:52Z</time>
      </trkpt>
      <trkpt lat="43.09598" lon="5.75806">
        <ele>1.1</ele>
        <time>2016-05-24T14:11:54Z</time>
      </trkpt>
      <trkpt lat="43.09618" lon="5.75806">
        <ele>1.1</ele>
        <time>2016-05-24T14:12:00Z</time>
      </trkpt>
      <trkpt lat="43.09651" lon="5.75805">
        <ele>0.14</ele>
        <time>2016-05-24T14:12:09Z</time>
      </trkpt>
      <trkpt lat="43.09695" lon="5.75802">
        <ele>-0.34</ele>
        <time>2016-05-24T14:12:21Z</time>
      </trkpt>
      <trkpt lat="43.09727" lon="5.75801">
        <ele>-0.34</ele>
        <time>2016-05-24T14:12:30Z</time>
      </trkpt>
      <trkpt lat="43.09772" lon="5.75803">
        <ele>-0.82</ele>
        <time>2016-05-24T14:12:42Z</time>
      </trkpt>
      <trkpt lat="43.09776" lon="5.75803">
        <ele>-0.34</ele>
        <time>2016-05-24T14:12:43Z</time>
      </trkpt>
      <trkpt lat="43.0982" lon="5.75805">
        <ele>0.62</ele>
        <time>2016-05-24T14:12:55Z</time>
      </trkpt>
      <trkpt lat="43.0983" lon="5.75808">
        <ele>0.62</ele>
        <time>2016-05-24T14:12:58Z</time>
      </trkpt>
      <trkpt lat="43.09849" lon="5.75816">
        <ele>0.14</ele>
        <time>2016-05-24T14:13:03Z</time>
      </trkpt>
      <trkpt lat="43.09862" lon="5.75818">
        <ele>0.14</ele>
        <time>2016-05-24T14:13:07Z</time>
      </trkpt>
      <trkpt lat="43.09873" lon="5.75816">
        <ele>-0.34</ele>
        <time>2016-05-24T14:13:10Z</time>
      </trkpt>
      <trkpt lat="43.09897" lon="5.75813">
        <ele>0.14</ele>
        <time>2016-05-24T14:13:16Z</time>
      </trkpt>
      <trkpt lat="43.09903" lon="5.7581">
        <ele>0.14</ele>
        <time>2016-05-24T14:13:18Z</time>
      </trkpt>
      <trkpt lat="43.09927" lon="5.75812">
        <ele>-0.82</ele>
        <time>2016-05-24T14:13:25Z</time>
      </trkpt>
      <trkpt lat="43.09967" lon="5.75821">
        <ele>-2.75</ele>
        <time>2016-05-24T14:13:36Z</time>
      </trkpt>
      <trkpt lat="43.10003" lon="5.75816">
        <ele>-3.23</ele>
        <time>2016-05-24T14:13:46Z</time>
      </trkpt>
      <trkpt lat="43.10035" lon="5.75814">
        <ele>-3.71</ele>
        <time>2016-05-24T14:13:55Z</time>
      </trkpt>
      <trkpt lat="43.10058" lon="5.75809">
        <ele>-3.71</ele>
        <time>2016-05-24T14:14:02Z</time>
      </trkpt>
      <trkpt lat="43.10085" lon="5.75805">
        <ele>-3.23</ele>
        <time>2016-05-24T14:14:10Z</time>
      </trkpt>
      <trkpt lat="43.10089" lon="5.75804">
        <ele>-3.23</ele>
        <time>2016-05-24T14:14:11Z</time>
      </trkpt>
      <trkpt lat="43.101" lon="5.75797">
        <ele>-3.23</ele>
        <time>2016-05-24T14:14:15Z</time>
      </trkpt>
      <trkpt lat="43.10145" lon="5.75795">
        <ele>-2.75</ele>
        <time>2016-05-24T14:14:28Z</time>
      </trkpt>
      <trkpt lat="43.10153" lon="5.75796">
        <ele>-2.27</ele>
        <time>2016-05-24T14:14:30Z</time>
      </trkpt>
      <trkpt lat="43.10166" lon="5.75792">
        <ele>-1.79</ele>
        <time>2016-05-24T14:14:34Z</time>
      </trkpt>
      <trkpt lat="43.10183" lon="5.75787">
        <ele>-1.79</ele>
        <time>2016-05-24T14:14:39Z</time>
      </trkpt>
      <trkpt lat="43.10222" lon="5.75787">
        <ele>-0.82</ele>
        <time>2016-05-24T14:14:50Z</time>
      </trkpt>
      <trkpt lat="43.1025" lon="5.75783">
        <ele>-0.34</ele>
        <time>2016-05-24T14:14:58Z</time>
      </trkpt>
      <trkpt lat="43.10288" lon="5.75782">
        <ele>-0.82</ele>
        <time>2016-05-24T14:15:08Z</time>
      </trkpt>
      <trkpt lat="43.10332" lon="5.75783">
        <ele>-2.27</ele>
        <time>2016-05-24T14:15:20Z</time>
      </trkpt>
      <trkpt lat="43.10339" lon="5.75784">
        <ele>-2.27</ele>
        <time>2016-05-24T14:15:22Z</time>
      </trkpt>
      <trkpt lat="43.10384" lon="5.75783">
        <ele>-0.82</ele>
        <time>2016-05-24T14:15:34Z</time>
      </trkpt>
      <trkpt lat="43.10417" lon="5.75777">
        <ele>0.62</ele>
        <time>2016-05-24T14:15:44Z</time>
      </trkpt>
      <trkpt lat="43.10453" lon="5.75766">
        <ele>1.1</ele>
        <time>2016-05-24T14:15:55Z</time>
      </trkpt>
      <trkpt lat="43.10468" lon="5.75764">
        <ele>1.1</ele>
        <time>2016-05-24T14:15:59Z</time>
      </trkpt>
      <trkpt lat="43.10505" lon="5.75765">
        <ele>1.1</ele>
        <time>2016-05-24T14:16:09Z</time>
      </trkpt>
      <trkpt lat="43.10513" lon="5.75766">
        <ele>2.06</ele>
        <time>2016-05-24T14:16:11Z</time>
      </trkpt>
      <trkpt lat="43.1052" lon="5.75765">
        <ele>1.58</ele>
        <time>2016-05-24T14:16:13Z</time>
      </trkpt>
      <trkpt lat="43.1056" lon="5.75764">
        <ele>2.06</ele>
        <time>2016-05-24T14:16:24Z</time>
      </trkpt>
      <trkpt lat="43.10596" lon="5.75766">
        <ele>1.58</ele>
        <time>2016-05-24T14:16:34Z</time>
      </trkpt>
      <trkpt lat="43.10624" lon="5.75768">
        <ele>1.58</ele>
        <time>2016-05-24T14:16:42Z</time>
      </trkpt>
      <trkpt lat="43.10628" lon="5.7577">
        <ele>2.06</ele>
        <time>2016-05-24T14:16:43Z</time>
      </trkpt>
      <trkpt lat="43.10658" lon="5.75772">
        <ele>1.1</ele>
        <time>2016-05-24T14:16:51Z</time>
      </trkpt>
      <trkpt lat="43.1069" lon="5.7577">
        <ele>1.58</ele>
        <time>2016-05-24T14:17:00Z</time>
      </trkpt>
      <trkpt lat="43.10705" lon="5.7577">
        <ele>1.58</ele>
        <time>2016-05-24T14:17:04Z</time>
      </trkpt>
      <trkpt lat="43.10749" lon="5.75767">
        <ele>0.62</ele>
        <time>2016-05-24T14:17:16Z</time>
      </trkpt>
      <trkpt lat="43.10777" lon="5.75763">
        <ele>0.14</ele>
        <time>2016-05-24T14:17:25Z</time>
      </trkpt>
      <trkpt lat="43.1079" lon="5.75767">
        <ele>0.62</ele>
        <time>2016-05-24T14:17:29Z</time>
      </trkpt>
      <trkpt lat="43.1082" lon="5.7577">
        <ele>1.1</ele>
        <time>2016-05-24T14:17:37Z</time>
      </trkpt>
      <trkpt lat="43.10859" lon="5.75775">
        <ele>1.58</ele>
        <time>2016-05-24T14:17:48Z</time>
      </trkpt>
      <trkpt lat="43.10898" lon="5.7577">
        <ele>3.5</ele>
        <time>2016-05-24T14:17:59Z</time>
      </trkpt>
      <trkpt lat="43.10928" lon="5.75771">
        <ele>3.02</ele>
        <time>2016-05-24T14:18:07Z</time>
      </trkpt>
      <trkpt lat="43.10964" lon="5.7577">
        <ele>2.06</ele>
        <time>2016-05-24T14:18:17Z</time>
      </trkpt>
      <trkpt lat="43.10976" lon="5.7577">
        <ele>1.58</ele>
        <time>2016-05-24T14:18:20Z</time>
      </trkpt>
      <trkpt lat="43.1099" lon="5.75768">
        <ele>1.58</ele>
        <time>2016-05-24T14:18:24Z</time>
      </trkpt>
      <trkpt lat="43.11019" lon="5.75767">
        <ele>1.58</ele>
        <time>2016-05-24T14:18:32Z</time>
      </trkpt>
      <trkpt lat="43.11052" lon="5.75767">
        <ele>1.58</ele>
        <time>2016-05-24T14:18:41Z</time>
      </trkpt>
      <trkpt lat="43.11072" lon="5.75769">
        <ele>0.62</ele>
        <time>2016-05-24T14:18:46Z</time>
      </trkpt>
      <trkpt lat="43.11079" lon="5.75769">
        <ele>-0.34</ele>
        <time>2016-05-24T14:18:48Z</time>
      </trkpt>
      <trkpt lat="43.11113" lon="5.75771">
        <ele>-2.27</ele>
        <time>2016-05-24T14:18:57Z</time>
      </trkpt>
      <trkpt lat="43.11138" lon="5.75769">
        <ele>-3.71</ele>
        <time>2016-05-24T14:19:04Z</time>
      </trkpt>
      <trkpt lat="43.11155" lon="5.75764">
        <ele>-4.19</ele>
        <time>2016-05-24T14:19:09Z</time>
      </trkpt>
      <trkpt lat="43.11167" lon="5.75763">
        <ele>-3.71</ele>
        <time>2016-05-24T14:19:12Z</time>
      </trkpt>
      <trkpt lat="43.11187" lon="5.75762">
        <ele>-2.27</ele>
        <time>2016-05-24T14:19:18Z</time>
      </trkpt>
      <trkpt lat="43.11197" lon="5.75757">
        <ele>-1.79</ele>
        <time>2016-05-24T14:19:21Z</time>
      </trkpt>
      <trkpt lat="43.11231" lon="5.75753">
        <ele>-2.27</ele>
        <time>2016-05-24T14:19:31Z</time>
      </trkpt>
      <trkpt lat="43.11266" lon="5.75752">
        <ele>-1.79</ele>
        <time>2016-05-24T14:19:41Z</time>
      </trkpt>
      <trkpt lat="43.11302" lon="5.75755">
        <ele>-2.27</ele>
        <time>2016-05-24T14:19:51Z</time>
      </trkpt>
      <trkpt lat="43.11324" lon="5.75753">
        <ele>-2.27</ele>
        <time>2016-05-24T14:19:57Z</time>
      </trkpt>
      <trkpt lat="43.11341" lon="5.75755">
        <ele>-2.75</ele>
        <time>2016-05-24T14:20:02Z</time>
      </trkpt>
      <trkpt lat="43.11349" lon="5.75757">
        <ele>-2.27</ele>
        <time>2016-05-24T14:20:04Z</time>
      </trkpt>
      <trkpt lat="43.11383" lon="5.75757">
        <ele>-2.75</ele>
        <time>2016-05-24T14:20:13Z</time>
      </trkpt>
      <trkpt lat="43.1141" lon="5.75761">
        <ele>-2.75</ele>
        <time>2016-05-24T14:20:20Z</time>
      </trkpt>
      <trkpt lat="43.11419" lon="5.75763">
        <ele>-2.27</ele>
        <time>2016-05-24T14:20:22Z</time>
      </trkpt>
      <trkpt lat="43.11448" lon="5.75762">
        <ele>-2.27</ele>
        <time>2016-05-24T14:20:31Z</time>
      </trkpt>
      <trkpt lat="43.11452" lon="5.75763">
        <ele>-2.27</ele>
        <time>2016-05-24T14:20:32Z</time>
      </trkpt>
      <trkpt lat="43.11484" lon="5.7577">
        <ele>-3.23</ele>
        <time>2016-05-24T14:20:41Z</time>
      </trkpt>
      <trkpt lat="43.11495" lon="5.75773">
        <ele>-3.23</ele>
        <time>2016-05-24T14:20:44Z</time>
      </trkpt>
      <trkpt lat="43.1151" lon="5.75775">
        <ele>-4.19</ele>
        <time>2016-05-24T14:20:48Z</time>
      </trkpt>
      <trkpt lat="43.1152" lon="5.75776">
        <ele>-4.67</ele>
        <time>2016-05-24T14:20:51Z</time>
      </trkpt>
      <trkpt lat="43.11556" lon="5.75778">
        <ele>-5.15</ele>
        <time>2016-05-24T14:21:01Z</time>
      </trkpt>
      <trkpt lat="43.1156" lon="5.75779">
        <ele>-5.15</ele>
        <time>2016-05-24T14:21:02Z</time>
      </trkpt>
      <trkpt lat="43.11594" lon="5.75782">
        <ele>-1.79</ele>
        <time>2016-05-24T14:21:12Z</time>
      </trkpt>
      <trkpt lat="43.11613" lon="5.75782">
        <ele>-1.3</ele>
        <time>2016-05-24T14:21:17Z</time>
      </trkpt>
      <trkpt lat="43.11631" lon="5.75784">
        <ele>-0.82</ele>
        <time>2016-05-24T14:21:22Z</time>
      </trkpt>
      <trkpt lat="43.11653" lon="5.75788">
        <ele>-1.79</ele>
        <time>2016-05-24T14:21:28Z</time>
      </trkpt>
      <trkpt lat="43.11687" lon="5.75793">
        <ele>-1.3</ele>
        <time>2016-05-24T14:21:37Z</time>
      </trkpt>
      <trkpt lat="43.11727" lon="5.75806">
        <ele>-3.23</ele>
        <time>2016-05-24T14:21:48Z</time>
      </trkpt>
      <trkpt lat="43.1173" lon="5.75805">
        <ele>-3.23</ele>
        <time>2016-05-24T14:21:49Z</time>
      </trkpt>
      <trkpt lat="43.11745" lon="5.75805">
        <ele>-1.3</ele>
        <time>2016-05-24T14:21:53Z</time>
      </trkpt>
      <trkpt lat="43.11755" lon="5.75806">
        <ele>-1.3</ele>
        <time>2016-05-24T14:21:56Z</time>
      </trkpt>
      <trkpt lat="43.1177" lon="5.75809">
        <ele>-1.3</ele>
        <time>2016-05-24T14:22:00Z</time>
      </trkpt>
      <trkpt lat="43.11778" lon="5.7581">
        <ele>-1.3</ele>
        <time>2016-05-24T14:22:02Z</time>
      </trkpt>
      <trkpt lat="43.1179" lon="5.75812">
        <ele>-2.27</ele>
        <time>2016-05-24T14:22:06Z</time>
      </trkpt>
      <trkpt lat="43.11808" lon="5.75812">
        <ele>-2.75</ele>
        <time>2016-05-24T14:22:11Z</time>
      </trkpt>
      <trkpt lat="43.11831" lon="5.75812">
        <ele>-2.27</ele>
        <time>2016-05-24T14:22:17Z</time>
      </trkpt>
      <trkpt lat="43.11838" lon="5.75814">
        <ele>-2.75</ele>
        <time>2016-05-24T14:22:19Z</time>
      </trkpt>
      <trkpt lat="43.11854" lon="5.7582">
        <ele>-3.71</ele>
        <time>2016-05-24T14:22:23Z</time>
      </trkpt>
      <trkpt lat="43.11874" lon="5.75822">
        <ele>-4.67</ele>
        <time>2016-05-24T14:22:28Z</time>
      </trkpt>
      <trkpt lat="43.119" lon="5.75827">
        <ele>-4.67</ele>
        <time>2016-05-24T14:22:35Z</time>
      </trkpt>
      <trkpt lat="43.11932" lon="5.75833">
        <ele>-3.23</ele>
        <time>2016-05-24T14:22:44Z</time>
      </trkpt>
      <trkpt lat="43.11939" lon="5.75834">
        <ele>-2.75</ele>
        <time>2016-05-24T14:22:46Z</time>
      </trkpt>
      <trkpt lat="43.11975" lon="5.75841">
        <ele>-3.71</ele>
        <time>2016-05-24T14:22:56Z</time>
      </trkpt>
      <trkpt lat="43.11997" lon="5.75844">
        <ele>-3.71</ele>
        <time>2016-05-24T14:23:02Z</time>
      </trkpt>
      <trkpt lat="43.12004" lon="5.75845">
        <ele>-3.71</ele>
        <time>2016-05-24T14:23:04Z</time>
      </trkpt>
      <trkpt lat="43.12019" lon="5.75848">
        <ele>-2.75</ele>
        <time>2016-05-24T14:23:08Z</time>
      </trkpt>
      <trkpt lat="43.12051" lon="5.7585">
        <ele>-1.3</ele>
        <time>2016-05-24T14:23:17Z</time>
      </trkpt>
      <trkpt lat="43.12083" lon="5.75858">
        <ele>3.02</ele>
        <time>2016-05-24T14:23:26Z</time>
      </trkpt>
      <trkpt lat="43.1209" lon="5.75857">
        <ele>3.5</ele>
        <time>2016-05-24T14:23:28Z</time>
      </trkpt>
      <trkpt lat="43.12129" lon="5.75863">
        <ele>4.94</ele>
        <time>2016-05-24T14:23:39Z</time>
      </trkpt>
      <trkpt lat="43.12143" lon="5.75862">
        <ele>4.94</ele>
        <time>2016-05-24T14:23:43Z</time>
      </trkpt>
      <trkpt lat="43.12172" lon="5.75864">
        <ele>9.27</ele>
        <time>2016-05-24T14:23:51Z</time>
      </trkpt>
      <trkpt lat="43.12185" lon="5.75864">
        <ele>11.19</ele>
        <time>2016-05-24T14:23:55Z</time>
      </trkpt>
      <trkpt lat="43.12199" lon="5.75864">
        <ele>13.12</ele>
        <time>2016-05-24T14:23:59Z</time>
      </trkpt>
      <trkpt lat="43.12228" lon="5.75873">
        <ele>13.6</ele>
        <time>2016-05-24T14:24:07Z</time>
      </trkpt>
      <trkpt lat="43.12253" lon="5.75876">
        <ele>11.19</ele>
        <time>2016-05-24T14:24:14Z</time>
      </trkpt>
      <trkpt lat="43.12289" lon="5.75881">
        <ele>7.35</ele>
        <time>2016-05-24T14:24:24Z</time>
      </trkpt>
      <trkpt lat="43.12336" lon="5.7589">
        <ele>5.91</ele>
        <time>2016-05-24T14:24:37Z</time>
      </trkpt>
      <trkpt lat="43.12366" lon="5.75898">
        <ele>4.46</ele>
        <time>2016-05-24T14:24:45Z</time>
      </trkpt>
      <trkpt lat="43.12377" lon="5.75903">
        <ele>4.46</ele>
        <time>2016-05-24T14:24:48Z</time>
      </trkpt>
      <trkpt lat="43.12391" lon="5.75904">
        <ele>3.02</ele>
        <time>2016-05-24T14:24:52Z</time>
      </trkpt>
      <trkpt lat="43.12402" lon="5.75908">
        <ele>2.54</ele>
        <time>2016-05-24T14:24:55Z</time>
      </trkpt>
      <trkpt lat="43.12443" lon="5.7592">
        <ele>3.02</ele>
        <time>2016-05-24T14:25:07Z</time>
      </trkpt>
      <trkpt lat="43.12483" lon="5.75924">
        <ele>3.02</ele>
        <time>2016-05-24T14:25:18Z</time>
      </trkpt>
      <trkpt lat="43.12519" lon="5.7593">
        <ele>3.02</ele>
        <time>2016-05-24T14:25:28Z</time>
      </trkpt>
      <trkpt lat="43.12534" lon="5.75932">
        <ele>3.02</ele>
        <time>2016-05-24T14:25:32Z</time>
      </trkpt>
      <trkpt lat="43.12575" lon="5.75947">
        <ele>1.1</ele>
        <time>2016-05-24T14:25:44Z</time>
      </trkpt>
      <trkpt lat="43.12617" lon="5.75963">
        <ele>1.58</ele>
        <time>2016-05-24T14:25:56Z</time>
      </trkpt>
      <trkpt lat="43.12653" lon="5.75975">
        <ele>2.06</ele>
        <time>2016-05-24T14:26:07Z</time>
      </trkpt>
      <trkpt lat="43.12688" lon="5.75992">
        <ele>2.06</ele>
        <time>2016-05-24T14:26:17Z</time>
      </trkpt>
      <trkpt lat="43.12723" lon="5.76003">
        <ele>1.58</ele>
        <time>2016-05-24T14:26:28Z</time>
      </trkpt>
      <trkpt lat="43.12778" lon="5.76021">
        <ele>0.14</ele>
        <time>2016-05-24T14:26:43Z</time>
      </trkpt>
      <trkpt lat="43.12821" lon="5.76043">
        <ele>1.1</ele>
        <time>2016-05-24T14:26:56Z</time>
      </trkpt>
      <trkpt lat="43.12878" lon="5.76068">
        <ele>2.06</ele>
        <time>2016-05-24T14:27:12Z</time>
      </trkpt>
      <trkpt lat="43.12934" lon="5.76093">
        <ele>1.58</ele>
        <time>2016-05-24T14:27:28Z</time>
      </trkpt>
      <trkpt lat="43.12966" lon="5.76111">
        <ele>1.1</ele>
        <time>2016-05-24T14:27:38Z</time>
      </trkpt>
      <trkpt lat="43.13014" lon="5.76133">
        <ele>-1.3</ele>
        <time>2016-05-24T14:27:52Z</time>
      </trkpt>
      <trkpt lat="43.13062" lon="5.76149">
        <ele>-5.15</ele>
        <time>2016-05-24T14:28:06Z</time>
      </trkpt>
      <trkpt lat="43.13113" lon="5.76175">
        <ele>-3.71</ele>
        <time>2016-05-24T14:28:21Z</time>
      </trkpt>
      <trkpt lat="43.13154" lon="5.76174">
        <ele>0.14</ele>
        <time>2016-05-24T14:28:33Z</time>
      </trkpt>
      <trkpt lat="43.13188" lon="5.76158">
        <ele>0.62</ele>
        <time>2016-05-24T14:28:44Z</time>
      </trkpt>
      <trkpt lat="43.1322" lon="5.76131">
        <ele>1.1</ele>
        <time>2016-05-24T14:28:56Z</time>
      </trkpt>
      <trkpt lat="43.13242" lon="5.76103">
        <ele>1.1</ele>
        <time>2016-05-24T14:29:07Z</time>
      </trkpt>
      <trkpt lat="43.13244" lon="5.761">
        <ele>1.1</ele>
        <time>2016-05-24T14:29:08Z</time>
      </trkpt>
      <trkpt lat="43.13231" lon="5.76083">
        <ele>0.62</ele>
        <time>2016-05-24T14:29:19Z</time>
      </trkpt>
      <trkpt lat="43.13229" lon="5.76082">
        <ele>0.62</ele>
        <time>2016-05-24T14:29:20Z</time>
      </trkpt>
      <trkpt lat="43.13191" lon="5.76068">
        <ele>1.1</ele>
        <time>2016-05-24T14:29:33Z</time>
      </trkpt>
      <trkpt lat="43.13153" lon="5.76041">
        <ele>1.1</ele>
        <time>2016-05-24T14:29:46Z</time>
      </trkpt>
      <trkpt lat="43.13117" lon="5.7602">
        <ele>1.1</ele>
        <time>2016-05-24T14:29:58Z</time>
      </trkpt>
      <trkpt lat="43.13084" lon="5.75995">
        <ele>1.1</ele>
        <time>2016-05-24T14:30:10Z</time>
      </trkpt>
      <trkpt lat="43.13047" lon="5.75965">
        <ele>1.1</ele>
        <time>2016-05-24T14:30:24Z</time>
      </trkpt>
      <trkpt lat="43.13018" lon="5.75932">
        <ele>1.58</ele>
        <time>2016-05-24T14:30:37Z</time>
      </trkpt>
      <trkpt lat="43.12979" lon="5.75893">
        <ele>2.06</ele>
        <time>2016-05-24T14:30:52Z</time>
      </trkpt>
      <trkpt lat="43.12939" lon="5.75856">
        <ele>2.06</ele>
        <time>2016-05-24T14:31:07Z</time>
      </trkpt>
      <trkpt lat="43.12905" lon="5.75824">
        <ele>1.58</ele>
        <time>2016-05-24T14:31:20Z</time>
      </trkpt>
      <trkpt lat="43.12871" lon="5.75783">
        <ele>1.58</ele>
        <time>2016-05-24T14:31:35Z</time>
      </trkpt>
      <trkpt lat="43.12844" lon="5.75759">
        <ele>1.58</ele>
        <time>2016-05-24T14:31:46Z</time>
      </trkpt>
      <trkpt lat="43.12821" lon="5.75732">
        <ele>1.58</ele>
        <time>2016-05-24T14:31:56Z</time>
      </trkpt>
      <trkpt lat="43.1279" lon="5.75699">
        <ele>1.1</ele>
        <time>2016-05-24T14:32:09Z</time>
      </trkpt>
      <trkpt lat="43.12758" lon="5.75667">
        <ele>0.62</ele>
        <time>2016-05-24T14:32:21Z</time>
      </trkpt>
      <trkpt lat="43.12723" lon="5.75643">
        <ele>1.1</ele>
        <time>2016-05-24T14:32:33Z</time>
      </trkpt>
      <trkpt lat="43.12696" lon="5.75616">
        <ele>2.54</ele>
        <time>2016-05-24T14:32:44Z</time>
      </trkpt>
      <trkpt lat="43.12671" lon="5.75594">
        <ele>2.54</ele>
        <time>2016-05-24T14:32:54Z</time>
      </trkpt>
      <trkpt lat="43.1264" lon="5.75569">
        <ele>3.98</ele>
        <time>2016-05-24T14:33:05Z</time>
      </trkpt>
      <trkpt lat="43.12604" lon="5.75543">
        <ele>1.1</ele>
        <time>2016-05-24T14:33:18Z</time>
      </trkpt>
      <trkpt lat="43.12568" lon="5.75515">
        <ele>-0.82</ele>
        <time>2016-05-24T14:33:31Z</time>
      </trkpt>
      <trkpt lat="43.12534" lon="5.75491">
        <ele>-0.34</ele>
        <time>2016-05-24T14:33:43Z</time>
      </trkpt>
      <trkpt lat="43.12503" lon="5.75469">
        <ele>0.14</ele>
        <time>2016-05-24T14:33:54Z</time>
      </trkpt>
      <trkpt lat="43.12472" lon="5.75449">
        <ele>0.62</ele>
        <time>2016-05-24T14:34:05Z</time>
      </trkpt>
      <trkpt lat="43.12442" lon="5.75425">
        <ele>1.1</ele>
        <time>2016-05-24T14:34:16Z</time>
      </trkpt>
      <trkpt lat="43.1241" lon="5.75404">
        <ele>1.1</ele>
        <time>2016-05-24T14:34:27Z</time>
      </trkpt>
      <trkpt lat="43.12382" lon="5.75383">
        <ele>0.62</ele>
        <time>2016-05-24T14:34:37Z</time>
      </trkpt>
      <trkpt lat="43.12351" lon="5.75354">
        <ele>-0.34</ele>
        <time>2016-05-24T14:34:49Z</time>
      </trkpt>
      <trkpt lat="43.12339" lon="5.75343">
        <ele>-0.82</ele>
        <time>2016-05-24T14:34:54Z</time>
      </trkpt>
      <trkpt lat="43.12321" lon="5.75325">
        <ele>-1.3</ele>
        <time>2016-05-24T14:35:02Z</time>
      </trkpt>
      <trkpt lat="43.12294" lon="5.75298">
        <ele>-1.79</ele>
        <time>2016-05-24T14:35:14Z</time>
      </trkpt>
      <trkpt lat="43.12271" lon="5.75276">
        <ele>-1.79</ele>
        <time>2016-05-24T14:35:24Z</time>
      </trkpt>
      <trkpt lat="43.12246" lon="5.7525">
        <ele>-1.79</ele>
        <time>2016-05-24T14:35:35Z</time>
      </trkpt>
      <trkpt lat="43.1222" lon="5.75231">
        <ele>-2.27</ele>
        <time>2016-05-24T14:35:45Z</time>
      </trkpt>
      <trkpt lat="43.12205" lon="5.75219">
        <ele>-2.27</ele>
        <time>2016-05-24T14:35:51Z</time>
      </trkpt>
      <trkpt lat="43.12175" lon="5.75188">
        <ele>-0.82</ele>
        <time>2016-05-24T14:36:04Z</time>
      </trkpt>
      <trkpt lat="43.12148" lon="5.75158">
        <ele>-0.82</ele>
        <time>2016-05-24T14:36:16Z</time>
      </trkpt>
      <trkpt lat="43.12122" lon="5.75131">
        <ele>1.1</ele>
        <time>2016-05-24T14:36:27Z</time>
      </trkpt>
      <trkpt lat="43.12106" lon="5.75114">
        <ele>1.1</ele>
        <time>2016-05-24T14:36:34Z</time>
      </trkpt>
      <trkpt lat="43.12095" lon="5.75105">
        <ele>1.1</ele>
        <time>2016-05-24T14:36:39Z</time>
      </trkpt>
      <trkpt lat="43.12075" lon="5.75085">
        <ele>3.02</ele>
        <time>2016-05-24T14:36:48Z</time>
      </trkpt>
      <trkpt lat="43.1206" lon="5.75078">
        <ele>4.94</ele>
        <time>2016-05-24T14:36:53Z</time>
      </trkpt>
      <trkpt lat="43.1205" lon="5.7507">
        <ele>5.42</ele>
        <time>2016-05-24T14:36:57Z</time>
      </trkpt>
      <trkpt lat="43.1202" lon="5.75039">
        <ele>4.94</ele>
        <time>2016-05-24T14:37:10Z</time>
      </trkpt>
      <trkpt lat="43.11997" lon="5.75015">
        <ele>5.42</ele>
        <time>2016-05-24T14:37:20Z</time>
      </trkpt>
      <trkpt lat="43.1197" lon="5.74986">
        <ele>2.54</ele>
        <time>2016-05-24T14:37:32Z</time>
      </trkpt>
      <trkpt lat="43.11954" lon="5.74964">
        <ele>1.58</ele>
        <time>2016-05-24T14:37:41Z</time>
      </trkpt>
      <trkpt lat="43.1193" lon="5.74939">
        <ele>2.54</ele>
        <time>2016-05-24T14:37:52Z</time>
      </trkpt>
      <trkpt lat="43.11901" lon="5.74913">
        <ele>3.02</ele>
        <time>2016-05-24T14:38:04Z</time>
      </trkpt>
      <trkpt lat="43.11872" lon="5.74891">
        <ele>1.1</ele>
        <time>2016-05-24T14:38:15Z</time>
      </trkpt>
      <trkpt lat="43.11838" lon="5.7486">
        <ele>-0.34</ele>
        <time>2016-05-24T14:38:28Z</time>
      </trkpt>
      <trkpt lat="43.11814" lon="5.74834">
        <ele>-1.79</ele>
        <time>2016-05-24T14:38:39Z</time>
      </trkpt>
      <trkpt lat="43.118" lon="5.74814">
        <ele>-2.75</ele>
        <time>2016-05-24T14:38:47Z</time>
      </trkpt>
      <trkpt lat="43.11777" lon="5.74791">
        <ele>-2.27</ele>
        <time>2016-05-24T14:38:59Z</time>
      </trkpt>
      <trkpt lat="43.11749" lon="5.74762">
        <ele>0.14</ele>
        <time>2016-05-24T14:39:12Z</time>
      </trkpt>
      <trkpt lat="43.11741" lon="5.74756">
        <ele>0.14</ele>
        <time>2016-05-24T14:39:15Z</time>
      </trkpt>
      <trkpt lat="43.11732" lon="5.74746">
        <ele>0.14</ele>
        <time>2016-05-24T14:39:19Z</time>
      </trkpt>
      <trkpt lat="43.11718" lon="5.74735">
        <ele>1.1</ele>
        <time>2016-05-24T14:39:25Z</time>
      </trkpt>
      <trkpt lat="43.11702" lon="5.74721">
        <ele>1.58</ele>
        <time>2016-05-24T14:39:32Z</time>
      </trkpt>
      <trkpt lat="43.11667" lon="5.74688">
        <ele>-0.34</ele>
        <time>2016-05-24T14:39:46Z</time>
      </trkpt>
      <trkpt lat="43.11637" lon="5.74663">
        <ele>0.14</ele>
        <time>2016-05-24T14:39:57Z</time>
      </trkpt>
      <trkpt lat="43.11618" lon="5.74643">
        <ele>0.14</ele>
        <time>2016-05-24T14:40:05Z</time>
      </trkpt>
      <trkpt lat="43.11589" lon="5.74622">
        <ele>-0.34</ele>
        <time>2016-05-24T14:40:16Z</time>
      </trkpt>
      <trkpt lat="43.11582" lon="5.74612">
        <ele>-0.34</ele>
        <time>2016-05-24T14:40:20Z</time>
      </trkpt>
      <trkpt lat="43.1157" lon="5.74606">
        <ele>0.14</ele>
        <time>2016-05-24T14:40:24Z</time>
      </trkpt>
      <trkpt lat="43.11533" lon="5.74581">
        <ele>0.62</ele>
        <time>2016-05-24T14:40:37Z</time>
      </trkpt>
      <trkpt lat="43.11521" lon="5.74576">
        <ele>0.62</ele>
        <time>2016-05-24T14:40:41Z</time>
      </trkpt>
      <trkpt lat="43.11487" lon="5.74551">
        <ele>2.54</ele>
        <time>2016-05-24T14:40:53Z</time>
      </trkpt>
      <trkpt lat="43.11457" lon="5.74532">
        <ele>3.02</ele>
        <time>2016-05-24T14:41:03Z</time>
      </trkpt>
      <trkpt lat="43.11425" lon="5.74513">
        <ele>3.02</ele>
        <time>2016-05-24T14:41:14Z</time>
      </trkpt>
      <trkpt lat="43.11395" lon="5.74495">
        <ele>2.54</ele>
        <time>2016-05-24T14:41:24Z</time>
      </trkpt>
      <trkpt lat="43.11366" lon="5.74476">
        <ele>2.06</ele>
        <time>2016-05-24T14:41:34Z</time>
      </trkpt>
      <trkpt lat="43.11354" lon="5.74472">
        <ele>2.06</ele>
        <time>2016-05-24T14:41:38Z</time>
      </trkpt>
      <trkpt lat="43.11326" lon="5.74457">
        <ele>2.54</ele>
        <time>2016-05-24T14:41:48Z</time>
      </trkpt>
      <trkpt lat="43.11316" lon="5.7445">
        <ele>2.54</ele>
        <time>2016-05-24T14:41:52Z</time>
      </trkpt>
      <trkpt lat="43.11278" lon="5.74426">
        <ele>2.54</ele>
        <time>2016-05-24T14:42:05Z</time>
      </trkpt>
      <trkpt lat="43.11242" lon="5.74402">
        <ele>3.98</ele>
        <time>2016-05-24T14:42:17Z</time>
      </trkpt>
      <trkpt lat="43.11211" lon="5.74386">
        <ele>3.02</ele>
        <time>2016-05-24T14:42:27Z</time>
      </trkpt>
      <trkpt lat="43.112" lon="5.74378">
        <ele>3.02</ele>
        <time>2016-05-24T14:42:31Z</time>
      </trkpt>
      <trkpt lat="43.11174" lon="5.74362">
        <ele>3.02</ele>
        <time>2016-05-24T14:42:40Z</time>
      </trkpt>
      <trkpt lat="43.11165" lon="5.74358">
        <ele>3.02</ele>
        <time>2016-05-24T14:42:43Z</time>
      </trkpt>
      <trkpt lat="43.11134" lon="5.74338">
        <ele>3.5</ele>
        <time>2016-05-24T14:42:54Z</time>
      </trkpt>
      <trkpt lat="43.11122" lon="5.74331">
        <ele>3.98</ele>
        <time>2016-05-24T14:42:58Z</time>
      </trkpt>
      <trkpt lat="43.11108" lon="5.74321">
        <ele>3.98</ele>
        <time>2016-05-24T14:43:03Z</time>
      </trkpt>
      <trkpt lat="43.11089" lon="5.74317">
        <ele>5.42</ele>
        <time>2016-05-24T14:43:09Z</time>
      </trkpt>
      <trkpt lat="43.11064" lon="5.74301">
        <ele>5.91</ele>
        <time>2016-05-24T14:43:19Z</time>
      </trkpt>
      <trkpt lat="43.11042" lon="5.74292">
        <ele>5.42</ele>
        <time>2016-05-24T14:43:26Z</time>
      </trkpt>
      <trkpt lat="43.11036" lon="5.74285">
        <ele>5.42</ele>
        <time>2016-05-24T14:43:29Z</time>
      </trkpt>
      <trkpt lat="43.11011" lon="5.74277">
        <ele>4.94</ele>
        <time>2016-05-24T14:43:38Z</time>
      </trkpt>
      <trkpt lat="43.10979" lon="5.74257">
        <ele>4.46</ele>
        <time>2016-05-24T14:43:49Z</time>
      </trkpt>
      <trkpt lat="43.10955" lon="5.7424">
        <ele>4.46</ele>
        <time>2016-05-24T14:43:58Z</time>
      </trkpt>
      <trkpt lat="43.10929" lon="5.74224">
        <ele>3.02</ele>
        <time>2016-05-24T14:44:07Z</time>
      </trkpt>
      <trkpt lat="43.10915" lon="5.74214">
        <ele>2.54</ele>
        <time>2016-05-24T14:44:12Z</time>
      </trkpt>
      <trkpt lat="43.10904" lon="5.74206">
        <ele>2.54</ele>
        <time>2016-05-24T14:44:16Z</time>
      </trkpt>
      <trkpt lat="43.10876" lon="5.74188">
        <ele>2.54</ele>
        <time>2016-05-24T14:44:27Z</time>
      </trkpt>
      <trkpt lat="43.10848" lon="5.74171">
        <ele>1.58</ele>
        <time>2016-05-24T14:44:36Z</time>
      </trkpt>
      <trkpt lat="43.10816" lon="5.74153">
        <ele>1.58</ele>
        <time>2016-05-24T14:44:47Z</time>
      </trkpt>
      <trkpt lat="43.10807" lon="5.74144">
        <ele>1.58</ele>
        <time>2016-05-24T14:44:51Z</time>
      </trkpt>
      <trkpt lat="43.10774" lon="5.74128">
        <ele>3.02</ele>
        <time>2016-05-24T14:45:02Z</time>
      </trkpt>
      <trkpt lat="43.10737" lon="5.74111">
        <ele>3.5</ele>
        <time>2016-05-24T14:45:15Z</time>
      </trkpt>
      <trkpt lat="43.10708" lon="5.74105">
        <ele>4.94</ele>
        <time>2016-05-24T14:45:26Z</time>
      </trkpt>
      <trkpt lat="43.1069" lon="5.74101">
        <ele>4.46</ele>
        <time>2016-05-24T14:45:33Z</time>
      </trkpt>
      <trkpt lat="43.10685" lon="5.74093">
        <ele>3.02</ele>
        <time>2016-05-24T14:45:38Z</time>
      </trkpt>
      <trkpt lat="43.10685" lon="5.74089">
        <ele>2.54</ele>
        <time>2016-05-24T14:45:40Z</time>
      </trkpt>
      <trkpt lat="43.10708" lon="5.74078">
        <ele>3.02</ele>
        <time>2016-05-24T14:45:51Z</time>
      </trkpt>
      <trkpt lat="43.10728" lon="5.74069">
        <ele>2.06</ele>
        <time>2016-05-24T14:45:59Z</time>
      </trkpt>
      <trkpt lat="43.10738" lon="5.7407">
        <ele>1.1</ele>
        <time>2016-05-24T14:46:02Z</time>
      </trkpt>
      <trkpt lat="43.10746" lon="5.74074">
        <ele>1.1</ele>
        <time>2016-05-24T14:46:04Z</time>
      </trkpt>
      <trkpt lat="43.10774" lon="5.74111">
        <ele>0.14</ele>
        <time>2016-05-24T14:46:16Z</time>
      </trkpt>
      <trkpt lat="43.10776" lon="5.74115">
        <ele>-0.34</ele>
        <time>2016-05-24T14:46:17Z</time>
      </trkpt>
      <trkpt lat="43.1079" lon="5.7415">
        <ele>-0.82</ele>
        <time>2016-05-24T14:46:24Z</time>
      </trkpt>
      <trkpt lat="43.10795" lon="5.7416">
        <ele>-1.3</ele>
        <time>2016-05-24T14:46:26Z</time>
      </trkpt>
      <trkpt lat="43.10809" lon="5.74179">
        <ele>-1.3</ele>
        <time>2016-05-24T14:46:31Z</time>
      </trkpt>
      <trkpt lat="43.10847" lon="5.74217">
        <ele>-2.27</ele>
        <time>2016-05-24T14:46:44Z</time>
      </trkpt>
      <trkpt lat="43.10873" lon="5.74243">
        <ele>-2.75</ele>
        <time>2016-05-24T14:46:53Z</time>
      </trkpt>
      <trkpt lat="43.10904" lon="5.74273">
        <ele>-3.71</ele>
        <time>2016-05-24T14:47:03Z</time>
      </trkpt>
      <trkpt lat="43.10921" lon="5.74292">
        <ele>-3.23</ele>
        <time>2016-05-24T14:47:08Z</time>
      </trkpt>
      <trkpt lat="43.10959" lon="5.74332">
        <ele>-2.27</ele>
        <time>2016-05-24T14:47:20Z</time>
      </trkpt>
      <trkpt lat="43.10992" lon="5.74367">
        <ele>0.14</ele>
        <time>2016-05-24T14:47:31Z</time>
      </trkpt>
      <trkpt lat="43.11029" lon="5.74406">
        <ele>-0.34</ele>
        <time>2016-05-24T14:47:43Z</time>
      </trkpt>
      <trkpt lat="43.11045" lon="5.74421">
        <ele>-0.34</ele>
        <time>2016-05-24T14:47:48Z</time>
      </trkpt>
      <trkpt lat="43.11056" lon="5.74433">
        <ele>-0.82</ele>
        <time>2016-05-24T14:47:52Z</time>
      </trkpt>
      <trkpt lat="43.11066" lon="5.74443">
        <ele>-0.34</ele>
        <time>2016-05-24T14:47:55Z</time>
      </trkpt>
      <trkpt lat="43.11091" lon="5.74464">
        <ele>0.14</ele>
        <time>2016-05-24T14:48:03Z</time>
      </trkpt>
      <trkpt lat="43.11128" lon="5.74501">
        <ele>1.1</ele>
        <time>2016-05-24T14:48:15Z</time>
      </trkpt>
      <trkpt lat="43.11145" lon="5.7452">
        <ele>1.1</ele>
        <time>2016-05-24T14:48:22Z</time>
      </trkpt>
      <trkpt lat="43.11181" lon="5.74563">
        <ele>1.58</ele>
        <time>2016-05-24T14:48:34Z</time>
      </trkpt>
      <trkpt lat="43.11209" lon="5.74591">
        <ele>1.1</ele>
        <time>2016-05-24T14:48:43Z</time>
      </trkpt>
      <trkpt lat="43.11241" lon="5.74624">
        <ele>1.1</ele>
        <time>2016-05-24T14:48:54Z</time>
      </trkpt>
      <trkpt lat="43.11282" lon="5.74668">
        <ele>1.1</ele>
        <time>2016-05-24T14:49:08Z</time>
      </trkpt>
      <trkpt lat="43.11318" lon="5.74701">
        <ele>0.62</ele>
        <time>2016-05-24T14:49:20Z</time>
      </trkpt>
      <trkpt lat="43.11331" lon="5.74711">
        <ele>0.62</ele>
        <time>2016-05-24T14:49:24Z</time>
      </trkpt>
      <trkpt lat="43.11357" lon="5.74736">
        <ele>0.62</ele>
        <time>2016-05-24T14:49:33Z</time>
      </trkpt>
      <trkpt lat="43.11398" lon="5.74778">
        <ele>0.62</ele>
        <time>2016-05-24T14:49:47Z</time>
      </trkpt>
      <trkpt lat="43.11435" lon="5.74818">
        <ele>-0.82</ele>
        <time>2016-05-24T14:49:59Z</time>
      </trkpt>
      <trkpt lat="43.11443" lon="5.74828">
        <ele>-0.82</ele>
        <time>2016-05-24T14:50:03Z</time>
      </trkpt>
      <trkpt lat="43.1147" lon="5.74867">
        <ele>-1.79</ele>
        <time>2016-05-24T14:50:14Z</time>
      </trkpt>
      <trkpt lat="43.11483" lon="5.74882">
        <ele>-1.3</ele>
        <time>2016-05-24T14:50:19Z</time>
      </trkpt>
      <trkpt lat="43.11517" lon="5.74913">
        <ele>0.14</ele>
        <time>2016-05-24T14:50:30Z</time>
      </trkpt>
      <trkpt lat="43.11539" lon="5.74931">
        <ele>0.14</ele>
        <time>2016-05-24T14:50:37Z</time>
      </trkpt>
      <trkpt lat="43.11546" lon="5.74937">
        <ele>0.14</ele>
        <time>2016-05-24T14:50:39Z</time>
      </trkpt>
      <trkpt lat="43.11559" lon="5.74949">
        <ele>-0.34</ele>
        <time>2016-05-24T14:50:43Z</time>
      </trkpt>
      <trkpt lat="43.11596" lon="5.74983">
        <ele>-1.3</ele>
        <time>2016-05-24T14:50:55Z</time>
      </trkpt>
      <trkpt lat="43.11614" lon="5.74999">
        <ele>-1.3</ele>
        <time>2016-05-24T14:51:01Z</time>
      </trkpt>
      <trkpt lat="43.11626" lon="5.75012">
        <ele>-1.79</ele>
        <time>2016-05-24T14:51:05Z</time>
      </trkpt>
      <trkpt lat="43.11636" lon="5.75023">
        <ele>-1.79</ele>
        <time>2016-05-24T14:51:09Z</time>
      </trkpt>
      <trkpt lat="43.11668" lon="5.75054">
        <ele>-1.3</ele>
        <time>2016-05-24T14:51:20Z</time>
      </trkpt>
      <trkpt lat="43.11701" lon="5.75083">
        <ele>-0.82</ele>
        <time>2016-05-24T14:51:30Z</time>
      </trkpt>
      <trkpt lat="43.11714" lon="5.75099">
        <ele>0.14</ele>
        <time>2016-05-24T14:51:35Z</time>
      </trkpt>
      <trkpt lat="43.11725" lon="5.75107">
        <ele>0.62</ele>
        <time>2016-05-24T14:51:38Z</time>
      </trkpt>
      <trkpt lat="43.11747" lon="5.75132">
        <ele>0.62</ele>
        <time>2016-05-24T14:51:46Z</time>
      </trkpt>
      <trkpt lat="43.11778" lon="5.75171">
        <ele>2.06</ele>
        <time>2016-05-24T14:51:57Z</time>
      </trkpt>
      <trkpt lat="43.1182" lon="5.75216">
        <ele>2.06</ele>
        <time>2016-05-24T14:52:11Z</time>
      </trkpt>
      <trkpt lat="43.11835" lon="5.75226">
        <ele>1.1</ele>
        <time>2016-05-24T14:52:16Z</time>
      </trkpt>
      <trkpt lat="43.11857" lon="5.75246">
        <ele>1.58</ele>
        <time>2016-05-24T14:52:23Z</time>
      </trkpt>
      <trkpt lat="43.11869" lon="5.75257">
        <ele>1.58</ele>
        <time>2016-05-24T14:52:27Z</time>
      </trkpt>
      <trkpt lat="43.11907" lon="5.75291">
        <ele>1.1</ele>
        <time>2016-05-24T14:52:40Z</time>
      </trkpt>
      <trkpt lat="43.11944" lon="5.75328">
        <ele>1.58</ele>
        <time>2016-05-24T14:52:53Z</time>
      </trkpt>
      <trkpt lat="43.11947" lon="5.7533">
        <ele>1.58</ele>
        <time>2016-05-24T14:52:54Z</time>
      </trkpt>
      <trkpt lat="43.11987" lon="5.75369">
        <ele>1.1</ele>
        <time>2016-05-24T14:53:07Z</time>
      </trkpt>
      <trkpt lat="43.12003" lon="5.75385">
        <ele>0.62</ele>
        <time>2016-05-24T14:53:13Z</time>
      </trkpt>
      <trkpt lat="43.12026" lon="5.75432">
        <ele>1.58</ele>
        <time>2016-05-24T14:53:24Z</time>
      </trkpt>
      <trkpt lat="43.12039" lon="5.75462">
        <ele>2.54</ele>
        <time>2016-05-24T14:53:32Z</time>
      </trkpt>
      <trkpt lat="43.12054" lon="5.75497">
        <ele>2.06</ele>
        <time>2016-05-24T14:53:41Z</time>
      </trkpt>
      <trkpt lat="43.12066" lon="5.75517">
        <ele>2.06</ele>
        <time>2016-05-24T14:53:47Z</time>
      </trkpt>
      <trkpt lat="43.12104" lon="5.75555">
        <ele>2.06</ele>
        <time>2016-05-24T14:54:00Z</time>
      </trkpt>
      <trkpt lat="43.12146" lon="5.75589">
        <ele>2.06</ele>
        <time>2016-05-24T14:54:13Z</time>
      </trkpt>
      <trkpt lat="43.12186" lon="5.75623">
        <ele>2.06</ele>
        <time>2016-05-24T14:54:26Z</time>
      </trkpt>
      <trkpt lat="43.12198" lon="5.75634">
        <ele>1.58</ele>
        <time>2016-05-24T14:54:30Z</time>
      </trkpt>
      <trkpt lat="43.12243" lon="5.75675">
        <ele>1.58</ele>
        <time>2016-05-24T14:54:45Z</time>
      </trkpt>
      <trkpt lat="43.12284" lon="5.75711">
        <ele>1.58</ele>
        <time>2016-05-24T14:54:58Z</time>
      </trkpt>
      <trkpt lat="43.12324" lon="5.75746">
        <ele>1.58</ele>
        <time>2016-05-24T14:55:11Z</time>
      </trkpt>
      <trkpt lat="43.12337" lon="5.75765">
        <ele>1.58</ele>
        <time>2016-05-24T14:55:17Z</time>
      </trkpt>
      <trkpt lat="43.12354" lon="5.75803">
        <ele>1.58</ele>
        <time>2016-05-24T14:55:26Z</time>
      </trkpt>
      <trkpt lat="43.1237" lon="5.75846">
        <ele>2.06</ele>
        <time>2016-05-24T14:55:37Z</time>
      </trkpt>
      <trkpt lat="43.12383" lon="5.75878">
        <ele>1.1</ele>
        <time>2016-05-24T14:55:46Z</time>
      </trkpt>
      <trkpt lat="43.12416" lon="5.7591">
        <ele>0.14</ele>
        <time>2016-05-24T14:55:59Z</time>
      </trkpt>
      <trkpt lat="43.12456" lon="5.75938">
        <ele>0.62</ele>
        <time>2016-05-24T14:56:13Z</time>
      </trkpt>
      <trkpt lat="43.12488" lon="5.75956">
        <ele>0.62</ele>
        <time>2016-05-24T14:56:24Z</time>
      </trkpt>
      <trkpt lat="43.12525" lon="5.75988">
        <ele>1.58</ele>
        <time>2016-05-24T14:56:37Z</time>
      </trkpt>
      <trkpt lat="43.12546" lon="5.76013">
        <ele>1.58</ele>
        <time>2016-05-24T14:56:45Z</time>
      </trkpt>
      <trkpt lat="43.1257" lon="5.76047">
        <ele>0.62</ele>
        <time>2016-05-24T14:56:55Z</time>
      </trkpt>
      <trkpt lat="43.12596" lon="5.76086">
        <ele>1.1</ele>
        <time>2016-05-24T14:57:06Z</time>
      </trkpt>
      <trkpt lat="43.12625" lon="5.76138">
        <ele>1.1</ele>
        <time>2016-05-24T14:57:20Z</time>
      </trkpt>
      <trkpt lat="43.12648" lon="5.76171">
        <ele>2.06</ele>
        <time>2016-05-24T14:57:31Z</time>
      </trkpt>
      <trkpt lat="43.12679" lon="5.76214">
        <ele>2.54</ele>
        <time>2016-05-24T14:57:45Z</time>
      </trkpt>
      <trkpt lat="43.12722" lon="5.76265">
        <ele>3.5</ele>
        <time>2016-05-24T14:58:00Z</time>
      </trkpt>
      <trkpt lat="43.1275" lon="5.76296">
        <ele>3.02</ele>
        <time>2016-05-24T14:58:11Z</time>
      </trkpt>
      <trkpt lat="43.12781" lon="5.7633">
        <ele>3.02</ele>
        <time>2016-05-24T14:58:23Z</time>
      </trkpt>
      <trkpt lat="43.12812" lon="5.76354">
        <ele>2.54</ele>
        <time>2016-05-24T14:58:34Z</time>
      </trkpt>
      <trkpt lat="43.12839" lon="5.76353">
        <ele>3.02</ele>
        <time>2016-05-24T14:58:43Z</time>
      </trkpt>
      <trkpt lat="43.12859" lon="5.76346">
        <ele>5.42</ele>
        <time>2016-05-24T14:58:49Z</time>
      </trkpt>
      <trkpt lat="43.12898" lon="5.76319">
        <ele>6.87</ele>
        <time>2016-05-24T14:59:03Z</time>
      </trkpt>
      <trkpt lat="43.12925" lon="5.76292">
        <ele>6.39</ele>
        <time>2016-05-24T14:59:14Z</time>
      </trkpt>
      <trkpt lat="43.12956" lon="5.76263">
        <ele>4.46</ele>
        <time>2016-05-24T14:59:26Z</time>
      </trkpt>
      <trkpt lat="43.12993" lon="5.76235">
        <ele>3.02</ele>
        <time>2016-05-24T14:59:39Z</time>
      </trkpt>
      <trkpt lat="43.13031" lon="5.76208">
        <ele>2.06</ele>
        <time>2016-05-24T14:59:52Z</time>
      </trkpt>
      <trkpt lat="43.13069" lon="5.76181">
        <ele>1.58</ele>
        <time>2016-05-24T15:00:05Z</time>
      </trkpt>
      <trkpt lat="43.13097" lon="5.76161">
        <ele>1.58</ele>
        <time>2016-05-24T15:00:15Z</time>
      </trkpt>
      <trkpt lat="43.13096" lon="5.76149">
        <ele>1.58</ele>
        <time>2016-05-24T15:00:20Z</time>
      </trkpt>
      <trkpt lat="43.13094" lon="5.76142">
        <ele>1.58</ele>
        <time>2016-05-24T15:00:23Z</time>
      </trkpt>
      <trkpt lat="43.13087" lon="5.76134">
        <ele>0.62</ele>
        <time>2016-05-24T15:00:28Z</time>
      </trkpt>
      <trkpt lat="43.13065" lon="5.7611">
        <ele>1.1</ele>
        <time>2016-05-24T15:00:41Z</time>
      </trkpt>
      <trkpt lat="43.13033" lon="5.76072">
        <ele>1.58</ele>
        <time>2016-05-24T15:00:55Z</time>
      </trkpt>
      <trkpt lat="43.12996" lon="5.7603">
        <ele>1.58</ele>
        <time>2016-05-24T15:01:10Z</time>
      </trkpt>
      <trkpt lat="43.12968" lon="5.76002">
        <ele>1.58</ele>
        <time>2016-05-24T15:01:21Z</time>
      </trkpt>
      <trkpt lat="43.12933" lon="5.75969">
        <ele>2.06</ele>
        <time>2016-05-24T15:01:34Z</time>
      </trkpt>
      <trkpt lat="43.12899" lon="5.75946">
        <ele>2.06</ele>
        <time>2016-05-24T15:01:46Z</time>
      </trkpt>
      <trkpt lat="43.12863" lon="5.75917">
        <ele>2.54</ele>
        <time>2016-05-24T15:01:59Z</time>
      </trkpt>
      <trkpt lat="43.12824" lon="5.75893">
        <ele>2.54</ele>
        <time>2016-05-24T15:02:12Z</time>
      </trkpt>
      <trkpt lat="43.12792" lon="5.75867">
        <ele>3.5</ele>
        <time>2016-05-24T15:02:24Z</time>
      </trkpt>
      <trkpt lat="43.12765" lon="5.75837">
        <ele>3.02</ele>
        <time>2016-05-24T15:02:35Z</time>
      </trkpt>
      <trkpt lat="43.12738" lon="5.75804">
        <ele>2.54</ele>
        <time>2016-05-24T15:02:47Z</time>
      </trkpt>
      <trkpt lat="43.12732" lon="5.75789">
        <ele>3.02</ele>
        <time>2016-05-24T15:02:51Z</time>
      </trkpt>
      <trkpt lat="43.12703" lon="5.75773">
        <ele>3.5</ele>
        <time>2016-05-24T15:03:02Z</time>
      </trkpt>
      <trkpt lat="43.12677" lon="5.75767">
        <ele>3.02</ele>
        <time>2016-05-24T15:03:11Z</time>
      </trkpt>
      <trkpt lat="43.12646" lon="5.75751">
        <ele>3.02</ele>
        <time>2016-05-24T15:03:22Z</time>
      </trkpt>
      <trkpt lat="43.12621" lon="5.75719">
        <ele>3.02</ele>
        <time>2016-05-24T15:03:33Z</time>
      </trkpt>
      <trkpt lat="43.12601" lon="5.757">
        <ele>3.5</ele>
        <time>2016-05-24T15:03:41Z</time>
      </trkpt>
      <trkpt lat="43.12578" lon="5.75673">
        <ele>2.54</ele>
        <time>2016-05-24T15:03:51Z</time>
      </trkpt>
      <trkpt lat="43.12552" lon="5.75642">
        <ele>0.14</ele>
        <time>2016-05-24T15:04:02Z</time>
      </trkpt>
      <trkpt lat="43.12528" lon="5.75603">
        <ele>1.1</ele>
        <time>2016-05-24T15:04:14Z</time>
      </trkpt>
      <trkpt lat="43.12526" lon="5.756">
        <ele>1.1</ele>
        <time>2016-05-24T15:04:15Z</time>
      </trkpt>
      <trkpt lat="43.12502" lon="5.75567">
        <ele>3.02</ele>
        <time>2016-05-24T15:04:26Z</time>
      </trkpt>
      <trkpt lat="43.12487" lon="5.75542">
        <ele>3.5</ele>
        <time>2016-05-24T15:04:34Z</time>
      </trkpt>
      <trkpt lat="43.12462" lon="5.755">
        <ele>2.54</ele>
        <time>2016-05-24T15:04:48Z</time>
      </trkpt>
      <trkpt lat="43.12439" lon="5.75466">
        <ele>3.02</ele>
        <time>2016-05-24T15:05:00Z</time>
      </trkpt>
      <trkpt lat="43.12414" lon="5.75431">
        <ele>2.54</ele>
        <time>2016-05-24T15:05:12Z</time>
      </trkpt>
      <trkpt lat="43.12392" lon="5.75403">
        <ele>1.1</ele>
        <time>2016-05-24T15:05:22Z</time>
      </trkpt>
      <trkpt lat="43.12367" lon="5.7537">
        <ele>1.1</ele>
        <time>2016-05-24T15:05:34Z</time>
      </trkpt>
      <trkpt lat="43.12346" lon="5.75349">
        <ele>1.1</ele>
        <time>2016-05-24T15:05:43Z</time>
      </trkpt>
      <trkpt lat="43.12318" lon="5.75319">
        <ele>1.1</ele>
        <time>2016-05-24T15:05:55Z</time>
      </trkpt>
      <trkpt lat="43.12295" lon="5.75289">
        <ele>1.58</ele>
        <time>2016-05-24T15:06:06Z</time>
      </trkpt>
      <trkpt lat="43.12268" lon="5.75261">
        <ele>3.5</ele>
        <time>2016-05-24T15:06:18Z</time>
      </trkpt>
      <trkpt lat="43.12244" lon="5.75237">
        <ele>3.98</ele>
        <time>2016-05-24T15:06:28Z</time>
      </trkpt>
      <trkpt lat="43.12214" lon="5.75207">
        <ele>3.98</ele>
        <time>2016-05-24T15:06:40Z</time>
      </trkpt>
      <trkpt lat="43.12183" lon="5.75171">
        <ele>3.5</ele>
        <time>2016-05-24T15:06:53Z</time>
      </trkpt>
      <trkpt lat="43.12157" lon="5.75139">
        <ele>3.98</ele>
        <time>2016-05-24T15:07:04Z</time>
      </trkpt>
      <trkpt lat="43.12131" lon="5.75108">
        <ele>3.98</ele>
        <time>2016-05-24T15:07:15Z</time>
      </trkpt>
      <trkpt lat="43.12106" lon="5.75082">
        <ele>3.02</ele>
        <time>2016-05-24T15:07:25Z</time>
      </trkpt>
      <trkpt lat="43.12078" lon="5.75053">
        <ele>1.58</ele>
        <time>2016-05-24T15:07:36Z</time>
      </trkpt>
      <trkpt lat="43.12051" lon="5.75025">
        <ele>2.06</ele>
        <time>2016-05-24T15:07:47Z</time>
      </trkpt>
      <trkpt lat="43.1202" lon="5.74997">
        <ele>2.54</ele>
        <time>2016-05-24T15:07:59Z</time>
      </trkpt>
      <trkpt lat="43.11993" lon="5.74961">
        <ele>3.5</ele>
        <time>2016-05-24T15:08:11Z</time>
      </trkpt>
      <trkpt lat="43.11967" lon="5.74927">
        <ele>2.54</ele>
        <time>2016-05-24T15:08:23Z</time>
      </trkpt>
      <trkpt lat="43.11941" lon="5.74894">
        <ele>1.58</ele>
        <time>2016-05-24T15:08:35Z</time>
      </trkpt>
      <trkpt lat="43.11912" lon="5.74864">
        <ele>1.58</ele>
        <time>2016-05-24T15:08:46Z</time>
      </trkpt>
      <trkpt lat="43.11887" lon="5.74832">
        <ele>1.1</ele>
        <time>2016-05-24T15:08:57Z</time>
      </trkpt>
      <trkpt lat="43.11858" lon="5.74798">
        <ele>0.62</ele>
        <time>2016-05-24T15:09:10Z</time>
      </trkpt>
      <trkpt lat="43.11832" lon="5.74761">
        <ele>-0.34</ele>
        <time>2016-05-24T15:09:22Z</time>
      </trkpt>
      <trkpt lat="43.11799" lon="5.74723">
        <ele>-2.27</ele>
        <time>2016-05-24T15:09:36Z</time>
      </trkpt>
      <trkpt lat="43.11771" lon="5.7469">
        <ele>-3.23</ele>
        <time>2016-05-24T15:09:48Z</time>
      </trkpt>
      <trkpt lat="43.11742" lon="5.74649">
        <ele>-3.71</ele>
        <time>2016-05-24T15:10:01Z</time>
      </trkpt>
      <trkpt lat="43.11713" lon="5.74603">
        <ele>-6.11</ele>
        <time>2016-05-24T15:10:16Z</time>
      </trkpt>
      <trkpt lat="43.11686" lon="5.74563">
        <ele>-5.63</ele>
        <time>2016-05-24T15:10:30Z</time>
      </trkpt>
      <trkpt lat="43.11656" lon="5.74522">
        <ele>-4.19</ele>
        <time>2016-05-24T15:10:44Z</time>
      </trkpt>
      <trkpt lat="43.11623" lon="5.74474">
        <ele>-5.63</ele>
        <time>2016-05-24T15:10:59Z</time>
      </trkpt>
      <trkpt lat="43.11597" lon="5.74435">
        <ele>-6.11</ele>
        <time>2016-05-24T15:11:12Z</time>
      </trkpt>
      <trkpt lat="43.11567" lon="5.74399">
        <ele>-6.11</ele>
        <time>2016-05-24T15:11:25Z</time>
      </trkpt>
      <trkpt lat="43.1154" lon="5.74362">
        <ele>-6.59</ele>
        <time>2016-05-24T15:11:37Z</time>
      </trkpt>
      <trkpt lat="43.11521" lon="5.74346">
        <ele>-6.11</ele>
        <time>2016-05-24T15:11:45Z</time>
      </trkpt>
      <trkpt lat="43.11492" lon="5.7431">
        <ele>-3.71</ele>
        <time>2016-05-24T15:12:00Z</time>
      </trkpt>
      <trkpt lat="43.11461" lon="5.7427">
        <ele>-1.3</ele>
        <time>2016-05-24T15:12:14Z</time>
      </trkpt>
      <trkpt lat="43.11432" lon="5.74231">
        <ele>-0.82</ele>
        <time>2016-05-24T15:12:28Z</time>
      </trkpt>
      <trkpt lat="43.11405" lon="5.74199">
        <ele>-0.82</ele>
        <time>2016-05-24T15:12:41Z</time>
      </trkpt>
      <trkpt lat="43.11383" lon="5.74176">
        <ele>-1.3</ele>
        <time>2016-05-24T15:12:53Z</time>
      </trkpt>
      <trkpt lat="43.1136" lon="5.74145">
        <ele>-2.27</ele>
        <time>2016-05-24T15:13:07Z</time>
      </trkpt>
      <trkpt lat="43.11333" lon="5.74113">
        <ele>-1.79</ele>
        <time>2016-05-24T15:13:21Z</time>
      </trkpt>
      <trkpt lat="43.11307" lon="5.74081">
        <ele>-0.82</ele>
        <time>2016-05-24T15:13:33Z</time>
      </trkpt>
      <trkpt lat="43.11265" lon="5.74045">
        <ele>-0.82</ele>
        <time>2016-05-24T15:13:49Z</time>
      </trkpt>
      <trkpt lat="43.11229" lon="5.74007">
        <ele>0.14</ele>
        <time>2016-05-24T15:14:04Z</time>
      </trkpt>
      <trkpt lat="43.11192" lon="5.7397">
        <ele>-0.34</ele>
        <time>2016-05-24T15:14:19Z</time>
      </trkpt>
      <trkpt lat="43.11157" lon="5.73933">
        <ele>0.14</ele>
        <time>2016-05-24T15:14:34Z</time>
      </trkpt>
      <trkpt lat="43.11118" lon="5.73897">
        <ele>1.58</ele>
        <time>2016-05-24T15:14:50Z</time>
      </trkpt>
      <trkpt lat="43.11089" lon="5.73869">
        <ele>2.54</ele>
        <time>2016-05-24T15:15:02Z</time>
      </trkpt>
      <trkpt lat="43.11068" lon="5.73853">
        <ele>3.02</ele>
        <time>2016-05-24T15:15:11Z</time>
      </trkpt>
      <trkpt lat="43.11065" lon="5.73852">
        <ele>3.02</ele>
        <time>2016-05-24T15:15:12Z</time>
      </trkpt>
      <trkpt lat="43.11062" lon="5.7384">
        <ele>2.06</ele>
        <time>2016-05-24T15:15:20Z</time>
      </trkpt>
      <trkpt lat="43.11091" lon="5.73846">
        <ele>1.1</ele>
        <time>2016-05-24T15:15:32Z</time>
      </trkpt>
      <trkpt lat="43.11118" lon="5.73875">
        <ele>1.58</ele>
        <time>2016-05-24T15:15:42Z</time>
      </trkpt>
      <trkpt lat="43.11123" lon="5.73883">
        <ele>2.06</ele>
        <time>2016-05-24T15:15:44Z</time>
      </trkpt>
      <trkpt lat="43.1115" lon="5.73932">
        <ele>2.54</ele>
        <time>2016-05-24T15:15:57Z</time>
      </trkpt>
      <trkpt lat="43.11181" lon="5.73968">
        <ele>1.58</ele>
        <time>2016-05-24T15:16:09Z</time>
      </trkpt>
      <trkpt lat="43.11217" lon="5.74007">
        <ele>2.06</ele>
        <time>2016-05-24T15:16:22Z</time>
      </trkpt>
      <trkpt lat="43.11244" lon="5.74036">
        <ele>2.54</ele>
        <time>2016-05-24T15:16:32Z</time>
      </trkpt>
      <trkpt lat="43.11272" lon="5.74073">
        <ele>3.5</ele>
        <time>2016-05-24T15:16:44Z</time>
      </trkpt>
      <trkpt lat="43.11285" lon="5.74088">
        <ele>3.98</ele>
        <time>2016-05-24T15:16:49Z</time>
      </trkpt>
      <trkpt lat="43.113" lon="5.74112">
        <ele>3.98</ele>
        <time>2016-05-24T15:16:56Z</time>
      </trkpt>
      <trkpt lat="43.11329" lon="5.74146">
        <ele>3.5</ele>
        <time>2016-05-24T15:17:07Z</time>
      </trkpt>
      <trkpt lat="43.11356" lon="5.74192">
        <ele>2.06</ele>
        <time>2016-05-24T15:17:20Z</time>
      </trkpt>
      <trkpt lat="43.1138" lon="5.74231">
        <ele>1.1</ele>
        <time>2016-05-24T15:17:31Z</time>
      </trkpt>
      <trkpt lat="43.11408" lon="5.74266">
        <ele>1.1</ele>
        <time>2016-05-24T15:17:42Z</time>
      </trkpt>
      <trkpt lat="43.11428" lon="5.74292">
        <ele>0.14</ele>
        <time>2016-05-24T15:17:50Z</time>
      </trkpt>
      <trkpt lat="43.1146" lon="5.74327">
        <ele>-1.79</ele>
        <time>2016-05-24T15:18:02Z</time>
      </trkpt>
      <trkpt lat="43.1148" lon="5.7435">
        <ele>-2.75</ele>
        <time>2016-05-24T15:18:10Z</time>
      </trkpt>
      <trkpt lat="43.11514" lon="5.74385">
        <ele>-3.71</ele>
        <time>2016-05-24T15:18:22Z</time>
      </trkpt>
      <trkpt lat="43.11529" lon="5.74408">
        <ele>-3.23</ele>
        <time>2016-05-24T15:18:29Z</time>
      </trkpt>
      <trkpt lat="43.11544" lon="5.74424">
        <ele>-3.23</ele>
        <time>2016-05-24T15:18:34Z</time>
      </trkpt>
      <trkpt lat="43.11572" lon="5.7447">
        <ele>-3.23</ele>
        <time>2016-05-24T15:18:46Z</time>
      </trkpt>
      <trkpt lat="43.11601" lon="5.74509">
        <ele>-3.71</ele>
        <time>2016-05-24T15:18:59Z</time>
      </trkpt>
      <trkpt lat="43.11634" lon="5.74544">
        <ele>-3.23</ele>
        <time>2016-05-24T15:19:12Z</time>
      </trkpt>
      <trkpt lat="43.11652" lon="5.74564">
        <ele>-3.71</ele>
        <time>2016-05-24T15:19:19Z</time>
      </trkpt>
      <trkpt lat="43.11677" lon="5.74595">
        <ele>-3.71</ele>
        <time>2016-05-24T15:19:29Z</time>
      </trkpt>
      <trkpt lat="43.11688" lon="5.74605">
        <ele>-4.19</ele>
        <time>2016-05-24T15:19:32Z</time>
      </trkpt>
      <trkpt lat="43.11711" lon="5.74637">
        <ele>-5.63</ele>
        <time>2016-05-24T15:19:42Z</time>
      </trkpt>
      <trkpt lat="43.11738" lon="5.74673">
        <ele>-5.15</ele>
        <time>2016-05-24T15:19:53Z</time>
      </trkpt>
      <trkpt lat="43.11755" lon="5.74691">
        <ele>-5.15</ele>
        <time>2016-05-24T15:20:00Z</time>
      </trkpt>
      <trkpt lat="43.11778" lon="5.74713">
        <ele>-4.67</ele>
        <time>2016-05-24T15:20:09Z</time>
      </trkpt>
      <trkpt lat="43.11784" lon="5.74721">
        <ele>-4.67</ele>
        <time>2016-05-24T15:20:11Z</time>
      </trkpt>
      <trkpt lat="43.11809" lon="5.74759">
        <ele>-4.67</ele>
        <time>2016-05-24T15:20:22Z</time>
      </trkpt>
      <trkpt lat="43.11831" lon="5.74788">
        <ele>-4.19</ele>
        <time>2016-05-24T15:20:31Z</time>
      </trkpt>
      <trkpt lat="43.11849" lon="5.7482">
        <ele>-3.71</ele>
        <time>2016-05-24T15:20:41Z</time>
      </trkpt>
      <trkpt lat="43.11871" lon="5.7485">
        <ele>-3.71</ele>
        <time>2016-05-24T15:20:50Z</time>
      </trkpt>
      <trkpt lat="43.11891" lon="5.74877">
        <ele>-3.23</ele>
        <time>2016-05-24T15:20:59Z</time>
      </trkpt>
      <trkpt lat="43.11924" lon="5.74916">
        <ele>-3.23</ele>
        <time>2016-05-24T15:21:11Z</time>
      </trkpt>
      <trkpt lat="43.11957" lon="5.74953">
        <ele>-1.3</ele>
        <time>2016-05-24T15:21:23Z</time>
      </trkpt>
      <trkpt lat="43.11965" lon="5.74964">
        <ele>-0.82</ele>
        <time>2016-05-24T15:21:26Z</time>
      </trkpt>
      <trkpt lat="43.11995" lon="5.74996">
        <ele>-0.34</ele>
        <time>2016-05-24T15:21:37Z</time>
      </trkpt>
      <trkpt lat="43.1202" lon="5.75026">
        <ele>-0.82</ele>
        <time>2016-05-24T15:21:47Z</time>
      </trkpt>
      <trkpt lat="43.12054" lon="5.7506">
        <ele>-1.79</ele>
        <time>2016-05-24T15:21:59Z</time>
      </trkpt>
      <trkpt lat="43.12088" lon="5.75099">
        <ele>-3.23</ele>
        <time>2016-05-24T15:22:11Z</time>
      </trkpt>
      <trkpt lat="43.12114" lon="5.75134">
        <ele>-4.19</ele>
        <time>2016-05-24T15:22:21Z</time>
      </trkpt>
      <trkpt lat="43.12136" lon="5.75165">
        <ele>-3.23</ele>
        <time>2016-05-24T15:22:30Z</time>
      </trkpt>
      <trkpt lat="43.12156" lon="5.75194">
        <ele>-2.75</ele>
        <time>2016-05-24T15:22:39Z</time>
      </trkpt>
      <trkpt lat="43.1217" lon="5.75225">
        <ele>-2.75</ele>
        <time>2016-05-24T15:22:47Z</time>
      </trkpt>
      <trkpt lat="43.1219" lon="5.75263">
        <ele>-2.27</ele>
        <time>2016-05-24T15:22:57Z</time>
      </trkpt>
      <trkpt lat="43.12194" lon="5.75269">
        <ele>-2.27</ele>
        <time>2016-05-24T15:22:59Z</time>
      </trkpt>
      <trkpt lat="43.12207" lon="5.75279">
        <ele>-2.75</ele>
        <time>2016-05-24T15:23:03Z</time>
      </trkpt>
      <trkpt lat="43.12241" lon="5.75324">
        <ele>-3.71</ele>
        <time>2016-05-24T15:23:17Z</time>
      </trkpt>
      <trkpt lat="43.12275" lon="5.75365">
        <ele>-3.71</ele>
        <time>2016-05-24T15:23:30Z</time>
      </trkpt>
      <trkpt lat="43.12306" lon="5.75403">
        <ele>-3.23</ele>
        <time>2016-05-24T15:23:42Z</time>
      </trkpt>
      <trkpt lat="43.12334" lon="5.75437">
        <ele>-1.79</ele>
        <time>2016-05-24T15:23:53Z</time>
      </trkpt>
      <trkpt lat="43.12369" lon="5.75472">
        <ele>-0.82</ele>
        <time>2016-05-24T15:24:06Z</time>
      </trkpt>
      <trkpt lat="43.12395" lon="5.75503">
        <ele>-1.79</ele>
        <time>2016-05-24T15:24:17Z</time>
      </trkpt>
      <trkpt lat="43.12426" lon="5.7554">
        <ele>-2.27</ele>
        <time>2016-05-24T15:24:29Z</time>
      </trkpt>
      <trkpt lat="43.12454" lon="5.75575">
        <ele>-2.27</ele>
        <time>2016-05-24T15:24:41Z</time>
      </trkpt>
      <trkpt lat="43.12488" lon="5.75612">
        <ele>-0.34</ele>
        <time>2016-05-24T15:24:53Z</time>
      </trkpt>
      <trkpt lat="43.12527" lon="5.75656">
        <ele>-0.34</ele>
        <time>2016-05-24T15:25:08Z</time>
      </trkpt>
      <trkpt lat="43.12557" lon="5.75688">
        <ele>-0.34</ele>
        <time>2016-05-24T15:25:19Z</time>
      </trkpt>
      <trkpt lat="43.12583" lon="5.75711">
        <ele>0.14</ele>
        <time>2016-05-24T15:25:29Z</time>
      </trkpt>
      <trkpt lat="43.12614" lon="5.75748">
        <ele>-0.34</ele>
        <time>2016-05-24T15:25:42Z</time>
      </trkpt>
      <trkpt lat="43.12646" lon="5.7579">
        <ele>-0.34</ele>
        <time>2016-05-24T15:25:56Z</time>
      </trkpt>
      <trkpt lat="43.12678" lon="5.75829">
        <ele>-0.82</ele>
        <time>2016-05-24T15:26:11Z</time>
      </trkpt>
      <trkpt lat="43.12707" lon="5.75862">
        <ele>-0.82</ele>
        <time>2016-05-24T15:26:25Z</time>
      </trkpt>
      <trkpt lat="43.12738" lon="5.75892">
        <ele>-0.82</ele>
        <time>2016-05-24T15:26:39Z</time>
      </trkpt>
      <trkpt lat="43.1277" lon="5.75925">
        <ele>-0.34</ele>
        <time>2016-05-24T15:26:52Z</time>
      </trkpt>
      <trkpt lat="43.12792" lon="5.75949">
        <ele>0.62</ele>
        <time>2016-05-24T15:27:03Z</time>
      </trkpt>
      <trkpt lat="43.12822" lon="5.7598">
        <ele>0.14</ele>
        <time>2016-05-24T15:27:16Z</time>
      </trkpt>
      <trkpt lat="43.12858" lon="5.76015">
        <ele>-0.34</ele>
        <time>2016-05-24T15:27:31Z</time>
      </trkpt>
      <trkpt lat="43.12891" lon="5.76049">
        <ele>1.1</ele>
        <time>2016-05-24T15:27:45Z</time>
      </trkpt>
      <trkpt lat="43.12927" lon="5.76083">
        <ele>1.1</ele>
        <time>2016-05-24T15:27:59Z</time>
      </trkpt>
      <trkpt lat="43.12966" lon="5.76118">
        <ele>1.1</ele>
        <time>2016-05-24T15:28:15Z</time>
      </trkpt>
      <trkpt lat="43.13011" lon="5.76154">
        <ele>-0.34</ele>
        <time>2016-05-24T15:28:35Z</time>
      </trkpt>
      <trkpt lat="43.13051" lon="5.76197">
        <ele>-1.3</ele>
        <time>2016-05-24T15:28:55Z</time>
      </trkpt>
      <trkpt lat="43.13075" lon="5.76237">
        <ele>-0.82</ele>
        <time>2016-05-24T15:29:10Z</time>
      </trkpt>
      <trkpt lat="43.13105" lon="5.76285">
        <ele>0.14</ele>
        <time>2016-05-24T15:29:27Z</time>
      </trkpt>
      <trkpt lat="43.13142" lon="5.76324">
        <ele>1.1</ele>
        <time>2016-05-24T15:29:45Z</time>
      </trkpt>
      <trkpt lat="43.13148" lon="5.76324">
        <ele>1.1</ele>
        <time>2016-05-24T15:29:48Z</time>
      </trkpt>
      <trkpt lat="43.13156" lon="5.763">
        <ele>3.5</ele>
        <time>2016-05-24T15:30:03Z</time>
      </trkpt>
      <trkpt lat="43.13155" lon="5.7629">
        <ele>4.94</ele>
        <time>2016-05-24T15:30:18Z</time>
      </trkpt>
      <trkpt lat="43.13154" lon="5.76289">
        <ele>4.94</ele>
        <time>2016-05-24T15:30:31Z</time>
      </trkpt>
      <trkpt lat="43.13155" lon="5.76291">
        <ele>4.94</ele>
        <time>2016-05-24T15:30:41Z</time>
      </trkpt>
      <trkpt lat="43.13157" lon="5.76296">
        <ele>3.02</ele>
        <time>2016-05-24T15:30:54Z</time>
      </trkpt>
      <trkpt lat="43.13158" lon="5.76304">
        <ele>2.06</ele>
        <time>2016-05-24T15:31:10Z</time>
      </trkpt>
      <trkpt lat="43.13157" lon="5.76305">
        <ele>1.58</ele>
        <time>2016-05-24T15:31:11Z</time>
      </trkpt>
      <trkpt lat="43.13154" lon="5.7631">
        <ele>2.06</ele>
        <time>2016-05-24T15:31:15Z</time>
      </trkpt>
      <trkpt lat="43.13141" lon="5.76307">
        <ele>2.06</ele>
        <time>2016-05-24T15:31:25Z</time>
      </trkpt>
      <trkpt lat="43.13142" lon="5.76299">
        <ele>2.06</ele>
        <time>2016-05-24T15:31:29Z</time>
      </trkpt>
      <trkpt lat="43.1315" lon="5.76296">
        <ele>1.58</ele>
        <time>2016-05-24T15:31:35Z</time>
      </trkpt>
      <trkpt lat="43.13167" lon="5.7629">
        <ele>1.58</ele>
        <time>2016-05-24T15:31:49Z</time>
      </trkpt>
      <trkpt lat="43.1318" lon="5.76275">
        <ele>1.1</ele>
        <time>2016-05-24T15:32:03Z</time>
      </trkpt>
      <trkpt lat="43.13189" lon="5.76252">
        <ele>0.62</ele>
        <time>2016-05-24T15:32:15Z</time>
      </trkpt>
      <trkpt lat="43.13202" lon="5.7622">
        <ele>-0.34</ele>
        <time>2016-05-24T15:32:29Z</time>
      </trkpt>
      <trkpt lat="43.13203" lon="5.76217">
        <ele>-0.34</ele>
        <time>2016-05-24T15:32:30Z</time>
      </trkpt>
      <trkpt lat="43.13208" lon="5.76193">
        <ele>-0.82</ele>
        <time>2016-05-24T15:32:39Z</time>
      </trkpt>
      <trkpt lat="43.13225" lon="5.76152">
        <ele>-2.75</ele>
        <time>2016-05-24T15:32:55Z</time>
      </trkpt>
      <trkpt lat="43.13244" lon="5.76123">
        <ele>-3.23</ele>
        <time>2016-05-24T15:33:08Z</time>
      </trkpt>
      <trkpt lat="43.13265" lon="5.76083">
        <ele>-3.71</ele>
        <time>2016-05-24T15:33:25Z</time>
      </trkpt>
      <trkpt lat="43.13278" lon="5.76052">
        <ele>-3.71</ele>
        <time>2016-05-24T15:33:37Z</time>
      </trkpt>
      <trkpt lat="43.1328" lon="5.76046">
        <ele>-3.71</ele>
        <time>2016-05-24T15:33:39Z</time>
      </trkpt>
      <trkpt lat="43.13286" lon="5.76037">
        <ele>-3.71</ele>
        <time>2016-05-24T15:33:44Z</time>
      </trkpt>
      <trkpt lat="43.13295" lon="5.76006">
        <ele>-3.71</ele>
        <time>2016-05-24T15:33:55Z</time>
      </trkpt>
      <trkpt lat="43.13314" lon="5.75967">
        <ele>-4.19</ele>
        <time>2016-05-24T15:34:10Z</time>
      </trkpt>
      <trkpt lat="43.13333" lon="5.75922">
        <ele>-3.71</ele>
        <time>2016-05-24T15:34:27Z</time>
      </trkpt>
      <trkpt lat="43.13352" lon="5.75866">
        <ele>-3.23</ele>
        <time>2016-05-24T15:34:47Z</time>
      </trkpt>
      <trkpt lat="43.13363" lon="5.75817">
        <ele>-2.75</ele>
        <time>2016-05-24T15:35:03Z</time>
      </trkpt>
      <trkpt lat="43.13353" lon="5.75779">
        <ele>-2.27</ele>
        <time>2016-05-24T15:35:15Z</time>
      </trkpt>
      <trkpt lat="43.13334" lon="5.75731">
        <ele>-1.3</ele>
        <time>2016-05-24T15:35:33Z</time>
      </trkpt>
      <trkpt lat="43.13325" lon="5.75681">
        <ele>-1.79</ele>
        <time>2016-05-24T15:35:53Z</time>
      </trkpt>
      <trkpt lat="43.13338" lon="5.75651">
        <ele>-1.3</ele>
        <time>2016-05-24T15:36:16Z</time>
      </trkpt>
      <trkpt lat="43.13355" lon="5.75636">
        <ele>-1.79</ele>
        <time>2016-05-24T15:36:40Z</time>
      </trkpt>
      <trkpt lat="43.13364" lon="5.75617">
        <ele>-1.3</ele>
        <time>2016-05-24T15:37:02Z</time>
      </trkpt>
      <trkpt lat="43.13368" lon="5.75609">
        <ele>-1.79</ele>
        <time>2016-05-24T15:37:11Z</time>
      </trkpt>
      <trkpt lat="43.13371" lon="5.75603">
        <ele>-2.27</ele>
        <time>2016-05-24T15:37:17Z</time>
      </trkpt>
      <trkpt lat="43.1339" lon="5.75569">
        <ele>-0.82</ele>
        <time>2016-05-24T15:37:45Z</time>
      </trkpt>
      <trkpt lat="43.13404" lon="5.75543">
        <ele>-1.3</ele>
        <time>2016-05-24T15:38:02Z</time>
      </trkpt>
      <trkpt lat="43.1342" lon="5.75518">
        <ele>0.14</ele>
        <time>2016-05-24T15:38:19Z</time>
      </trkpt>
      <trkpt lat="43.13427" lon="5.75504">
        <ele>0.14</ele>
        <time>2016-05-24T15:38:29Z</time>
      </trkpt>
      <trkpt lat="43.1344" lon="5.75484">
        <ele>0.14</ele>
        <time>2016-05-24T15:38:45Z</time>
      </trkpt>
      <trkpt lat="43.13456" lon="5.75461">
        <ele>-0.82</ele>
        <time>2016-05-24T15:39:03Z</time>
      </trkpt>
      <trkpt lat="43.13462" lon="5.75439">
        <ele>-0.82</ele>
        <time>2016-05-24T15:39:19Z</time>
      </trkpt>
      <trkpt lat="43.1346" lon="5.75433">
        <ele>-0.34</ele>
        <time>2016-05-24T15:39:36Z</time>
      </trkpt>
      <trkpt lat="43.13463" lon="5.75439">
        <ele>-0.82</ele>
        <time>2016-05-24T15:39:44Z</time>
      </trkpt>
      <trkpt lat="43.13483" lon="5.7547">
        <ele>-1.3</ele>
        <time>2016-05-24T15:40:11Z</time>
      </trkpt>
      <trkpt lat="43.13505" lon="5.75492">
        <ele>-1.79</ele>
        <time>2016-05-24T15:40:37Z</time>
      </trkpt>
      <trkpt lat="43.13508" lon="5.75494">
        <ele>-3.23</ele>
        <time>2016-05-24T15:40:55Z</time>
      </trkpt>
      <trkpt lat="43.13515" lon="5.755">
        <ele>-0.82</ele>
        <time>2016-05-24T15:41:16Z</time>
      </trkpt>
      <trkpt lat="43.13525" lon="5.75505">
        <ele>0.14</ele>
        <time>2016-05-24T15:41:36Z</time>
      </trkpt>
      <trkpt lat="43.13524" lon="5.75517">
        <ele>-2.27</ele>
        <time>2016-05-24T15:41:48Z</time>
      </trkpt>
      <trkpt lat="43.13525" lon="5.75518">
        <ele>-2.75</ele>
        <time>2016-05-24T15:41:49Z</time>
      </trkpt>
      <trkpt lat="43.13525" lon="5.75521">
        <ele>-2.75</ele>
        <time>2016-05-24T15:41:51Z</time>
      </trkpt>
      <trkpt lat="43.13522" lon="5.75532">
        <ele>-3.23</ele>
        <time>2016-05-24T15:42:07Z</time>
      </trkpt>
      <trkpt lat="43.13523" lon="5.75534">
        <ele>-2.27</ele>
        <time>2016-05-24T15:42:31Z</time>
      </trkpt>
      <trkpt lat="43.13523" lon="5.75534">
        <ele>0.14</ele>
        <time>2016-05-24T15:42:42Z</time>
      </trkpt>
      <trkpt lat="43.13524" lon="5.75534">
        <ele>1.1</ele>
        <time>2016-05-24T15:43:03Z</time>
      </trkpt>
      <trkpt lat="43.13525" lon="5.75534">
        <ele>1.1</ele>
        <time>2016-05-24T15:43:30Z</time>
      </trkpt>
      <trkpt lat="43.13525" lon="5.75535">
        <ele>0.62</ele>
        <time>2016-05-24T15:43:58Z</time>
      </trkpt>
      <trkpt lat="43.13525" lon="5.75536">
        <ele>0.62</ele>
        <time>2016-05-24T15:44:27Z</time>
      </trkpt>
      <trkpt lat="43.13523" lon="5.75535">
        <ele>1.1</ele>
        <time>2016-05-24T15:44:46Z</time>
      </trkpt>
      <trkpt lat="43.13523" lon="5.75535">
        <ele>1.1</ele>
        <time>2016-05-24T15:44:57Z</time>
      </trkpt>
      <trkpt lat="43.13523" lon="5.75535">
        <ele>1.1</ele>
        <time>2016-05-24T15:45:08Z</time>
      </trkpt>
      <trkpt lat="43.13524" lon="5.75535">
        <ele>1.1</ele>
        <time>2016-05-24T15:45:22Z</time>
      </trkpt>
      <trkpt lat="43.13524" lon="5.75536">
        <ele>0.62</ele>
        <time>2016-05-24T15:45:30Z</time>
      </trkpt>
      <trkpt lat="43.13524" lon="5.75536">
        <ele>0.62</ele>
        <time>2016-05-24T15:45:32Z</time>
      </trkpt>
      <trkpt lat="43.1352" lon="5.75534">
        <ele>-0.34</ele>
        <time>2016-05-24T15:45:45Z</time>
      </trkpt>
      <trkpt lat="43.13517" lon="5.75532">
        <ele>0.14</ele>
        <time>2016-05-24T15:45:57Z</time>
      </trkpt>
      <trkpt lat="43.13512" lon="5.75528">
        <ele>1.1</ele>
        <time>2016-05-24T15:46:06Z</time>
      </trkpt>
      <trkpt lat="43.13507" lon="5.75526">
        <ele>1.58</ele>
        <time>2016-05-24T15:46:18Z</time>
      </trkpt>
      <trkpt lat="43.135" lon="5.7552">
        <ele>1.58</ele>
        <time>2016-05-24T15:46:32Z</time>
      </trkpt>
      <trkpt lat="43.13498" lon="5.75518">
        <ele>2.06</ele>
        <time>2016-05-24T15:46:43Z</time>
      </trkpt>
      <trkpt lat="43.13495" lon="5.75517">
        <ele>2.54</ele>
        <time>2016-05-24T15:47:20Z</time>
      </trkpt>
      <trkpt lat="43.13495" lon="5.75516">
        <ele>2.54</ele>
        <time>2016-05-24T15:47:54Z</time>
      </trkpt>
      <trkpt lat="43.13494" lon="5.75515">
        <ele>2.06</ele>
        <time>2016-05-24T15:48:26Z</time>
      </trkpt>
      <trkpt lat="43.13493" lon="5.75514">
        <ele>1.1</ele>
        <time>2016-05-24T15:49:01Z</time>
      </trkpt>
      <trkpt lat="43.13493" lon="5.75514">
        <ele>0.62</ele>
        <time>2016-05-24T15:49:40Z</time>
      </trkpt>
      <trkpt lat="43.13492" lon="5.75513">
        <ele>-0.34</ele>
        <time>2016-05-24T15:50:14Z</time>
      </trkpt>
      <trkpt lat="43.13492" lon="5.75513">
        <ele>-1.3</ele>
        <time>2016-05-24T15:50:43Z</time>
      </trkpt>
      <trkpt lat="43.13492" lon="5.75513">
        <ele>-1.3</ele>
        <time>2016-05-24T15:51:23Z</time>
      </trkpt>
      <trkpt lat="43.13492" lon="5.75513">
        <ele>-2.27</ele>
        <time>2016-05-24T15:51:57Z</time>
      </trkpt>
      <trkpt lat="43.13492" lon="5.75513">
        <ele>-2.27</ele>
        <time>2016-05-24T15:52:26Z</time>
      </trkpt>
      <trkpt lat="43.13491" lon="5.75512">
        <ele>-2.75</ele>
        <time>2016-05-24T15:53:03Z</time>
      </trkpt>
      <trkpt lat="43.13491" lon="5.75513">
        <ele>-3.23</ele>
        <time>2016-05-24T15:53:36Z</time>
      </trkpt>
      <trkpt lat="43.13491" lon="5.75513">
        <ele>-3.23</ele>
        <time>2016-05-24T15:54:12Z</time>
      </trkpt>
      <trkpt lat="43.13491" lon="5.75513">
        <ele>-3.23</ele>
        <time>2016-05-24T15:54:41Z</time>
      </trkpt>
      <trkpt lat="43.13491" lon="5.75513">
        <ele>-3.23</ele>
        <time>2016-05-24T15:55:11Z</time>
      </trkpt>
      <trkpt lat="43.13491" lon="5.75513">
        <ele>-3.71</ele>
        <time>2016-05-24T15:55:23Z</time>
      </trkpt>
      <trkpt lat="43.1349" lon="5.75513">
        <ele>-3.23</ele>
        <time>2016-05-24T15:55:32Z</time>
      </trkpt>
    </trkseg>
  </trk>
</gpx>